EW9680 / D-AGWG 7700 Squawk Report (19th of September, 2020)

Aircraft A319 Reg No. D-AGWG Age 13 years old
Model A319 Jet engines 2 First flight 29-06-07
Registered 28-10-17 Rollout 06-07 Delivered 11-07-07
Construction No. 3193 Line No. N/A Series 132
ADSHEX 3C5EE7 Airline name Eurowings Owner N/A
Airfield based Dusseldorf~Nordrhein-Westfalen~D First tracked N/A

Flight history for D-AGWG

Route Flight No Date Playback
Hamburg (HAM) - Munich Airport (MUC) EW7176 2020-10-20 17:21:00
Koln Bonn (CGN) - Hamburg (HAM) EW7033 2020-10-20 16:41:00
Hamburg (HAM) - Koln Bonn (CGN) EW7032 2020-10-20 14:16:00
Munich Airport (MUC) - Hamburg (HAM) EW7171 2020-10-20 07:59:00
Hamburg (HAM) - Munich Airport (MUC) EW7170 2020-10-20 06:45:00
Schwechat (VIE) - Hamburg (HAM) EW7751 2020-10-19 18:52:00
Hamburg (HAM) - Schwechat (VIE) EW7750 2020-10-19 17:33:00
Schwechat (VIE) - Hamburg (HAM) EW7753 2020-10-19 15:18:00
Hamburg (HAM) - Schwechat (VIE) EW7752 2020-10-19 06:03:00
Arlanda (ARN) - Hamburg (HAM) EW7219 2020-10-18 16:31:00
Hamburg (HAM) - Arlanda (ARN) EW7218 2020-10-18 14:07:00
Olbia Costa Smeralda (OLB) - Hamburg (HAM) EW7845 2020-10-18 12:56:00
Hamburg (HAM) - Olbia Costa Smeralda (OLB) EW7844 2020-10-18 08:21:00
Pristina (PRN) - Hamburg (HAM) EW5705 2020-10-18 06:16:00
Munich Airport (MUC) - Pristina (PRN) EW6615 2020-10-17 17:41:00
Hamburg (HAM) - Munich Airport (MUC) EW7170 2020-10-17 14:48:00
Munich Airport (MUC) - Hamburg (HAM) EW7171 2020-10-17 11:52:00
Pristina (PRN) - Munich Airport (MUC) EW6614 2020-10-17 10:45:00
Hamburg (HAM) - Pristina (PRN) EW5704 2020-10-17 06:50:00
Son Sant Joan (PMI) - Hamburg (HAM) EW7581 2020-10-16 15:26:00
Time Lat Lon Altitude Heading Speed Vertical Rate
2020-09-19 07:56:47 GMT 37.937572 23.951195 0 216 7 0
2020-09-19 07:56:37 GMT 37.937897 23.951509 0 216 11 0
2020-09-19 07:56:23 GMT 37.938469 23.952061 0 236 11 0
2020-09-19 07:56:16 GMT 37.938641 23.952475 0 247 14 0
2020-09-19 07:56:05 GMT 37.938934 23.953360 0 247 14 0
2020-09-19 07:55:54 GMT 37.939293 23.954039 0 216 16 0
2020-09-19 07:55:43 GMT 37.939991 23.954687 0 216 17 0
2020-09-19 07:55:32 GMT 37.940575 23.955250 0 216 13 0
2020-09-19 07:55:21 GMT 37.941086 23.955599 0 163 12 0
2020-09-19 07:55:10 GMT 37.941559 23.955149 0 126 13 0
2020-09-19 07:54:59 GMT 37.942028 23.954359 0 126 19 0
2020-09-19 07:54:48 GMT 37.942600 23.953396 0 126 19 0
2020-09-19 07:54:37 GMT 37.943203 23.952391 0 126 20 0
2020-09-19 07:54:26 GMT 37.943745 23.951481 0 126 20 0
2020-09-19 07:54:15 GMT 37.944393 23.950403 0 126 24 0
2020-09-19 07:54:03 GMT 37.945152 23.949142 0 126 23 0
2020-09-19 07:53:53 GMT 37.945789 23.948076 0 126 21 0
2020-09-19 07:53:42 GMT 37.946342 23.947126 0 126 17 0
2020-09-19 07:53:31 GMT 37.946812 23.946375 0 112 13 0
2020-09-19 07:53:20 GMT 37.946754 23.945681 0 42 13 0
2020-09-19 07:53:09 GMT 37.946136 23.945074 0 36 22 0
2020-09-19 07:52:58 GMT 37.945148 23.944136 0 36 26 0
2020-09-19 07:52:47 GMT 37.944088 23.943150 0 36 26 0
2020-09-19 07:52:36 GMT 37.943066 23.942165 0 36 25 0
2020-09-19 07:52:25 GMT 37.942039 23.941181 0 36 25 0
2020-09-19 07:52:14 GMT 37.941074 23.940269 0 36 25 0
2020-09-19 07:52:03 GMT 37.940121 23.939358 0 36 24 0
2020-09-19 07:51:52 GMT 37.939133 23.938417 0 36 24 0
2020-09-19 07:51:41 GMT 37.938217 23.937557 0 36 23 0
2020-09-19 07:51:30 GMT 37.937313 23.936682 0 36 23 0
2020-09-19 07:51:19 GMT 37.936661 23.935556 0 67 23 0
2020-09-19 07:51:08 GMT 37.936199 23.934179 0 67 24 0
2020-09-19 07:50:56 GMT 37.935631 23.932766 0 56 26 0
2020-09-19 07:50:46 GMT 37.934769 23.931492 0 39 40 0
2020-09-19 07:50:35 GMT 37.932381 23.929209 175 36 82 0
2020-09-19 07:50:24 GMT 37.928329 23.925360 175 37 122 -64
2020-09-19 07:50:13 GMT 37.923203 23.920450 275 36 126 -512
2020-09-19 07:50:01 GMT 37.918056 23.915625 400 37 120 -640
2020-09-19 07:49:51 GMT 37.913490 23.911205 500 37 115 -512
2020-09-19 07:49:40 GMT 37.908791 23.906729 600 36 117 -704
2020-09-19 07:49:29 GMT 37.904041 23.902250 725 37 119 -576
2020-09-19 07:49:18 GMT 37.899078 23.897543 850 36 121 -640
2020-09-19 07:49:07 GMT 37.893986 23.892817 975 37 122 -704
2020-09-19 07:48:56 GMT 37.889099 23.888039 1,100 37 123 -704
2020-09-19 07:48:45 GMT 37.884026 23.883263 1,225 36 123 -640
2020-09-19 07:48:34 GMT 37.878983 23.878492 1,325 37 119 -640
2020-09-19 07:48:23 GMT 37.874294 23.873947 1,450 36 116 -704
2020-09-19 07:48:12 GMT 37.869549 23.869410 1,575 37 117 -640
2020-09-19 07:48:01 GMT 37.864792 23.864935 1,675 36 121 -704
2020-09-19 07:46:16 GMT 37.803535 23.806717 2,975 37 184 64
2020-09-19 07:46:10 GMT 37.799057 23.802406 3,000 37 192 -64
2020-09-19 07:46:00 GMT 37.791824 23.795685 3,000 36 199 -192
2020-09-19 07:45:42 GMT 37.778118 23.782415 3,125 38 209 -512
2020-09-19 07:45:38 GMT 37.774933 23.779264 3,150 37 213 -512
2020-09-19 07:45:25 GMT 37.764664 23.768982 3,275 39 221 -512
2020-09-19 07:45:16 GMT 37.757812 23.761208 3,350 46 223 -448
2020-09-19 07:45:05 GMT 37.751026 23.749813 3,450 64 220 -576
2020-09-19 07:44:53 GMT 37.747066 23.734947 3,550 74 220 -512
2020-09-19 07:44:01 GMT 37.732132 23.669752 4,050 73 234 -704
2020-09-19 07:43:53 GMT 37.729656 23.659178 4,150 73 239 -960
2020-09-19 07:43:42 GMT 37.726166 23.644428 4,325 73 243 -1024
2020-09-19 07:43:32 GMT 37.723068 23.631184 4,475 73 246 -960
2020-09-19 07:43:23 GMT 37.719727 23.616982 4,650 73 251 -1216
2020-09-19 07:43:12 GMT 37.716297 23.602753 4,850 73 254 -1216
2020-09-19 07:43:02 GMT 37.712757 23.588123 5,075 72 254 -1024
2020-09-19 07:42:52 GMT 37.709267 23.573854 5,250 73 253 -1024
2020-09-19 07:42:42 GMT 37.705856 23.558720 5,400 76 251 -1024
2020-09-19 07:42:31 GMT 37.704117 23.544287 5,575 88 250 -1088
2020-09-19 07:42:21 GMT 37.704575 23.529558 5,750 94 249 -1088
2020-09-19 07:42:10 GMT 37.705589 23.513430 5,950 94 249 -1280
2020-09-19 07:42:00 GMT 37.706406 23.499990 6,100 94 247 -1024
2020-09-19 07:41:51 GMT 37.707321 23.484970 6,275 94 252 -1024
2020-09-19 07:41:39 GMT 37.708923 23.468666 6,475 102 258 -1472
2020-09-19 07:41:30 GMT 37.720814 23.442854 6,750 127 266 -1536
2020-09-19 07:41:19 GMT 37.720814 23.442854 6,975 140 271 -1472
2020-09-19 07:41:09 GMT 37.733429 23.433538 7,225 162 281 -1024
2020-09-19 07:40:57 GMT 37.747467 23.430216 7,400 177 288 -1024
2020-09-19 07:40:48 GMT 37.760986 23.431808 7,575 190 293 -1024
2020-09-19 07:40:38 GMT 37.773464 23.434256 7,750 189 295 -1088
2020-09-19 07:40:27 GMT 37.787010 23.436884 7,925 189 296 -960
2020-09-19 07:40:18 GMT 37.800884 23.439449 8,100 189 294 -1088
2020-09-19 07:40:07 GMT 37.815407 23.442257 8,275 189 295 -1600
2020-09-19 07:39:56 GMT 37.828907 23.444765 8,550 189 295 -1472
2020-09-19 07:39:47 GMT 37.843460 23.447395 8,750 189 297 -1024
2020-09-19 07:39:38 GMT 37.868896 23.451988 9,050 189 303 -1728
2020-09-19 07:39:28 GMT 37.868896 23.451988 9,150 189 303 -1792
2020-09-19 07:39:15 GMT 37.886028 23.455334 9,425 189 303 -1152
2020-09-19 07:39:05 GMT 37.901230 23.458323 9,600 189 303 -960
2020-09-19 07:38:57 GMT 37.911209 23.460253 9,725 189 303 -1152
2020-09-19 07:38:54 GMT 37.914612 23.460945 9,775 189 304 -1216
2020-09-19 07:38:44 GMT 37.928528 23.463633 10,000 189 306 -1536
2020-09-19 07:38:35 GMT 37.943100 23.466497 10,250 189 308 -1792
2020-09-19 07:38:24 GMT 37.957623 23.469423 10,525 190 309 -1600
2020-09-19 07:38:14 GMT 37.978947 23.473604 10,850 187 313 -960
2020-09-19 07:38:04 GMT 37.986649 23.474628 10,900 186 313 -896
2020-09-19 07:37:56 GMT 37.998821 23.475275 11,075 181 315 -1408
2020-09-19 07:37:49 GMT 38.008972 23.475216 11,250 179 316 -1472
2020-09-19 07:37:45 GMT 38.013245 23.475153 11,325 179 317 -1472
2020-09-19 07:37:38 GMT 38.024101 23.475037 11,450 179 320 -1024
2020-09-19 07:37:35 GMT 38.028618 23.474916 11,500 179 321 -1088
2020-09-19 07:37:25 GMT 38.043747 23.474678 11,725 178 329 -1664
2020-09-19 07:37:18 GMT 38.056412 23.474335 12,025 178 334 -2624
2020-09-19 07:37:15 GMT 38.059341 23.474218 12,100 178 334 -2624
2020-09-19 07:37:05 GMT 38.075867 23.473694 12,525 178 336 -2688
2020-09-19 07:36:57 GMT 38.087357 23.473284 12,875 178 338 -2752
2020-09-19 07:36:54 GMT 38.092117 23.473108 13,000 178 339 -2816
2020-09-19 07:36:47 GMT 38.103104 23.472816 13,375 178 338 -3200
2020-09-19 07:36:44 GMT 38.107616 23.472649 13,425 178 338 -3200
2020-09-19 07:36:36 GMT 38.121323 23.472347 13,875 178 337 -3008
2020-09-19 07:36:33 GMT 38.124329 23.472231 13,975 178 337 -3008
2020-09-19 07:36:28 GMT 38.133823 23.471931 14,225 178 337 -2496
2020-09-19 07:36:23 GMT 38.139317 23.471752 14,375 178 339 -1984
2020-09-19 07:36:14 GMT 38.156021 23.471121 14,575 178 348 -896
2020-09-19 07:36:06 GMT 38.168976 23.470594 14,650 177 359 -576
2020-09-19 07:36:03 GMT 38.172958 23.470362 14,675 177 362 -512
2020-09-19 07:36:00 GMT 38.179825 23.469835 14,725 175 368 -512
2020-09-19 07:35:56 GMT 38.183624 23.469543 14,750 163 380 -1088
2020-09-19 07:35:53 GMT 38.189453 23.468826 14,775 171 377 -1024
2020-09-19 07:35:48 GMT 38.198208 23.466915 14,850 166 379 -1152
2020-09-19 07:35:42 GMT 38.207657 23.463333 14,950 158 383 -1152
2020-09-19 07:35:39 GMT 38.214638 23.459633 15,025 153 385 -1216
2020-09-19 07:35:33 GMT 38.223312 23.453472 15,125 148 387 -1536
2020-09-19 07:35:27 GMT 38.231049 23.446344 15,350 141 389 -2496
2020-09-19 07:35:22 GMT 38.238148 23.439034 15,575 140 390 -2816
2020-09-19 07:35:17 GMT 38.244526 23.432405 15,800 140 391 -3008
2020-09-19 07:35:12 GMT 38.252655 23.424021 16,100 140 391 -3392
2020-09-19 07:35:08 GMT 38.259468 23.417061 16,350 140 390 -3520
2020-09-19 07:35:02 GMT 38.266872 23.409357 16,675 140 389 -3520
2020-09-19 07:34:54 GMT 38.278507 23.397297 17,100 140 389 -2816
2020-09-19 07:34:51 GMT 38.281116 23.394550 17,200 140 389 -2752
2020-09-19 07:34:46 GMT 38.289448 23.385832 17,450 140 390 -2624
2020-09-19 07:34:42 GMT 38.295219 23.379803 17,625 140 391 -2688
2020-09-19 07:34:31 GMT 38.309513 23.364397 18,075 139 392 -3136
2020-09-19 07:34:25 GMT 38.317200 23.355940 18,325 139 394 -2112
2020-09-19 07:34:21 GMT 38.323338 23.349232 18,450 138 396 -1792
2020-09-19 07:34:11 GMT 38.337536 23.333588 18,825 139 401 -2496
2020-09-19 07:34:04 GMT 38.346771 23.323448 19,075 139 402 -2816
2020-09-19 07:34:01 GMT 38.351578 23.318190 19,250 139 402 -3264
2020-09-19 07:33:55 GMT 38.360733 23.308254 19,575 139 402 -3264
2020-09-19 07:33:51 GMT 38.366539 23.302002 19,775 139 402 -3008
2020-09-19 07:33:40 GMT 38.380920 23.286457 20,175 139 405 -1984
2020-09-19 07:33:30 GMT 38.395706 23.270388 20,450 139 412 -1088
2020-09-19 07:33:23 GMT 38.406509 23.258583 20,550 139 419 -1088
2020-09-19 07:33:20 GMT 38.410156 23.254595 20,600 139 422 -1472
2020-09-19 07:33:10 GMT 38.426033 23.237366 21,000 139 426 -3456
2020-09-19 07:33:02 GMT 38.436905 23.225574 21,400 139 424 -3584
2020-09-19 07:32:59 GMT 38.441860 23.220215 21,650 139 424 -3648
2020-09-19 07:32:52 GMT 38.451591 23.209778 22,000 140 422 -3712
2020-09-19 07:32:49 GMT 38.456432 23.204590 22,175 140 421 -3712
2020-09-19 07:32:41 GMT 38.467575 23.192736 22,625 140 418 -3520
2020-09-19 07:32:38 GMT 38.471886 23.188110 22,800 139 418 -3456
2020-09-19 07:32:32 GMT 38.483826 23.175362 23,225 140 417 -3328
2020-09-19 07:32:28 GMT 38.487350 23.171598 23,325 140 417 -3136
2020-09-19 07:32:20 GMT 38.499447 23.158752 23,775 140 416 -2944
2020-09-19 07:32:17 GMT 38.503822 23.154053 23,800 140 417 -2816
2020-09-19 07:32:08 GMT 38.518253 23.138794 24,250 140 418 -2496
2020-09-19 07:32:00 GMT 38.528496 23.127991 24,525 140 420 -2368
2020-09-19 07:31:57 GMT 38.533939 23.122131 24,625 140 420 -2240
2020-09-19 07:31:50 GMT 38.543064 23.112427 24,875 140 423 -2304
2020-09-19 07:31:46 GMT 38.549538 23.105530 25,000 139 424 -2368
2020-09-19 07:31:39 GMT 38.560287 23.093994 25,300 139 427 -2368
2020-09-19 07:31:36 GMT 38.565491 23.088425 25,425 139 427 -2432
2020-09-19 07:31:29 GMT 38.575558 23.077515 25,650 139 429 -2560
2020-09-19 07:31:26 GMT 38.580727 23.071960 25,775 139 429 -2560
2020-09-19 07:31:20 GMT 38.589897 23.062134 26,250 139 432 -2496
2020-09-19 07:31:16 GMT 38.596554 23.054993 26,250 139 433 -2496
2020-09-19 07:31:09 GMT 38.605728 23.045076 26,475 139 434 -2496
2020-09-19 07:31:05 GMT 38.612522 23.037781 26,650 140 435 -2560
2020-09-19 07:30:59 GMT 38.621063 23.028658 26,925 140 437 -2560
2020-09-19 07:30:55 GMT 38.628662 23.020536 27,075 139 438 -2496
2020-09-19 07:30:47 GMT 38.641384 23.006836 27,400 139 441 -2496
2020-09-19 07:30:44 GMT 38.645508 23.002445 27,475 139 442 -2560
2020-09-19 07:30:40 GMT 38.650414 22.997131 27,650 139 442 -2560
2020-09-19 07:30:36 GMT 38.657364 22.989609 27,800 139 444 -2496
2020-09-19 07:30:31 GMT 38.666710 22.979492 28,050 139 445 -2560
2020-09-19 07:30:28 GMT 38.670105 22.975769 28,125 139 446 -2560
2020-09-19 07:30:24 GMT 38.677742 22.967590 28,325 139 446 -2560
2020-09-19 07:30:20 GMT 38.683273 22.961605 28,500 139 448 -2560
2020-09-19 07:30:16 GMT 38.689453 22.954977 28,625 139 448 -2560
2020-09-19 07:30:13 GMT 38.694443 22.949545 28,775 139 449 -2560
2020-09-19 07:30:08 GMT 38.701714 22.941711 28,900 139 450 -2496
2020-09-19 07:30:03 GMT 38.710651 22.932129 29,175 139 451 -2560
2020-09-19 07:29:56 GMT 38.721954 22.919868 29,475 139 454 -2496
2020-09-19 07:29:52 GMT 38.727364 22.914062 29,575 139 454 -2560
2020-09-19 07:29:45 GMT 38.738724 22.901794 29,875 139 456 -2624
2020-09-19 07:29:41 GMT 38.744308 22.895813 30,050 139 456 -2624
2020-09-19 07:29:38 GMT 38.753948 22.885437 30,250 139 457 -2688
2020-09-19 07:29:35 GMT 38.753948 22.885437 30,350 139 458 -2688
2020-09-19 07:29:32 GMT 38.760727 22.878134 30,475 139 459 -2688
2020-09-19 07:29:27 GMT 38.768051 22.870239 30,625 139 460 -2560
2020-09-19 07:29:24 GMT 38.772289 22.865662 30,750 139 461 -2560
2020-09-19 07:29:21 GMT 38.777920 22.859619 30,875 139 461 -2496
2020-09-19 07:29:17 GMT 38.784302 22.852697 31,125 139 462 -2432
2020-09-19 07:29:14 GMT 38.788284 22.848337 31,150 139 462 -2432
2020-09-19 07:29:11 GMT 38.794876 22.841173 31,325 139 463 -2496
2020-09-19 07:29:04 GMT 38.805176 22.830008 31,575 139 463 -2560
2020-09-19 07:29:00 GMT 38.811951 22.822632 31,725 139 464 -2688
2020-09-19 07:28:54 GMT 38.821865 22.811890 32,000 139 464 -2816
2020-09-19 07:28:49 GMT 38.828987 22.804199 32,225 139 464 -3008
2020-09-19 07:28:46 GMT 38.834530 22.798218 32,375 139 464 -3136
2020-09-19 07:28:43 GMT 38.839275 22.793091 32,525 139 464 -3328
2020-09-19 07:28:40 GMT 38.846375 22.785465 32,750 139 463 -3264
2020-09-19 07:28:35 GMT 38.858185 22.772629 33,125 139 461 -3328
2020-09-19 07:28:29 GMT 38.862991 22.767374 33,275 139 461 -3264
2020-09-19 07:28:24 GMT 38.871956 22.757629 33,600 139 460 -3328
2020-09-19 07:28:19 GMT 38.880150 22.748718 33,875 139 459 -3328
2020-09-19 07:28:13 GMT 38.888123 22.740026 34,150 139 458 -3392
2020-09-19 07:28:08 GMT 38.896770 22.730591 34,425 139 458 -3328
2020-09-19 07:28:03 GMT 38.905197 22.721338 34,700 139 456 -3328
2020-09-19 07:27:57 GMT 38.914738 22.710938 35,025 139 456 -3264
2020-09-19 07:27:52 GMT 38.921535 22.703491 35,275 139 455 -3200
2020-09-19 07:27:48 GMT 38.930241 22.693970 35,525 139 453 -3072
2020-09-19 07:27:43 GMT 38.937408 22.686096 35,775 139 454 -3008
2020-09-19 07:27:36 GMT 38.947037 22.675661 36,075 139 452 -2880
2020-09-19 07:27:33 GMT 38.953857 22.668318 36,250 140 452 -2432
2020-09-19 07:27:27 GMT 38.963882 22.657570 36,500 140 452 -2368
2020-09-19 07:27:24 GMT 38.967297 22.653870 36,575 139 451 -2560
2020-09-19 07:27:21 GMT 38.971115 22.649809 36,700 139 451 -2432
2020-09-19 07:27:16 GMT 38.986588 22.633030 36,975 139 451 -1920
2020-09-19 07:27:12 GMT 38.986588 22.633030 37,025 139 451 -1728
2020-09-19 07:27:05 GMT 38.996578 22.622131 37,375 139 451 -960
2020-09-19 07:26:59 GMT 39.006638 22.611177 37,350 139 451 -1024
2020-09-19 07:26:56 GMT 39.012955 22.604252 37,400 139 450 -960
2020-09-19 07:26:52 GMT 39.019619 22.596985 37,475 139 450 -960
2020-09-19 07:26:49 GMT 39.023392 22.592907 37,500 139 450 -960
2020-09-19 07:26:44 GMT 39.029846 22.585800 37,575 139 450 -960
2020-09-19 07:26:41 GMT 39.035980 22.579115 37,600 139 450 -1024
2020-09-19 07:26:35 GMT 39.046761 22.567383 37,750 139 450 -1024
2020-09-19 07:26:31 GMT 39.051975 22.561646 37,800 139 451 -1024
2020-09-19 07:26:27 GMT 39.059509 22.553438 37,875 139 451 -1024
2020-09-19 07:26:24 GMT 39.062729 22.549988 37,900 139 452 -960
2020-09-19 07:26:20 GMT 39.069077 22.543051 37,975 139 453 -960
2020-09-19 07:26:14 GMT 39.079514 22.531645 38,075 139 454 -1024
2020-09-19 07:26:10 GMT 39.085236 22.525436 38,125 139 454 -960
2020-09-19 07:26:03 GMT 39.096153 22.513428 38,250 139 454 -960
2020-09-19 07:26:00 GMT 39.102531 22.506470 38,300 139 454 -960
2020-09-19 07:25:50 GMT 39.117004 22.490505 38,450 139 454 -960
2020-09-19 07:25:43 GMT 39.129272 22.476892 38,575 139 455 -896
2020-09-19 07:25:40 GMT 39.133347 22.472416 38,600 139 455 -896
2020-09-19 07:25:30 GMT 39.149185 22.454981 38,750 139 456 -1024
2020-09-19 07:25:19 GMT 39.165939 22.436470 38,950 139 457 -576
2020-09-19 07:25:09 GMT 39.181480 22.419495 39,000 139 457 0
2020-09-19 07:24:59 GMT 39.199078 22.400269 39,000 139 457 -64
2020-09-19 07:24:49 GMT 39.214954 22.382812 39,025 139 458 -64
2020-09-19 07:24:38 GMT 39.232086 22.364014 39,025 139 457 0
2020-09-19 07:24:29 GMT 39.248283 22.346191 39,025 139 456 0
2020-09-19 07:24:18 GMT 39.264393 22.328491 39,025 139 456 0
2020-09-19 07:24:08 GMT 39.280544 22.310669 39,025 139 457 0
2020-09-19 07:23:57 GMT 39.298004 22.291382 39,025 139 457 64
2020-09-19 07:23:46 GMT 39.315857 22.271734 39,000 139 457 64
2020-09-19 07:23:37 GMT 39.332153 22.253702 39,000 139 457 64
2020-09-19 07:23:27 GMT 39.346558 22.237793 39,000 139 458 64
2020-09-19 07:23:17 GMT 39.363098 22.219549 38,975 139 457 0
2020-09-19 07:23:08 GMT 39.377197 22.203907 39,000 139 457 0
2020-09-19 07:23:05 GMT 39.381912 22.198711 39,000 139 457 -64
2020-09-19 07:23:02 GMT 39.386871 22.193237 39,000 139 456 0
2020-09-19 07:22:57 GMT 39.396553 22.182434 39,000 139 456 0
2020-09-19 07:22:47 GMT 39.410007 22.167542 39,000 139 456 -64
2020-09-19 07:22:39 GMT 39.423386 22.152678 39,000 139 456 -64
2020-09-19 07:22:36 GMT 39.428257 22.147278 39,000 139 456 -64
2020-09-19 07:22:27 GMT 39.459641 22.112614 39,000 139 456 0
2020-09-19 07:22:16 GMT 39.459641 22.112614 39,000 139 456 -64
2020-09-19 07:22:06 GMT 39.475983 22.094582 39,025 139 456 -128
2020-09-19 07:22:00 GMT 39.486305 22.083130 39,025 139 455 -64
2020-09-19 07:21:56 GMT 39.492004 22.076729 39,025 139 455 64
2020-09-19 07:21:49 GMT 39.502899 22.064547 39,025 139 455 128
2020-09-19 07:21:46 GMT 39.508465 22.058350 39,000 139 455 128
2020-09-19 07:21:39 GMT 39.519032 22.046570 39,000 139 456 64
2020-09-19 07:21:36 GMT 39.524479 22.040466 39,000 139 456 64
2020-09-19 07:21:28 GMT 39.535976 22.027588 39,000 139 456 0
2020-09-19 07:21:25 GMT 39.540985 22.022036 39,000 139 456 0
2020-09-19 07:21:15 GMT 39.557648 22.003407 39,000 139 455 0
2020-09-19 07:21:05 GMT 39.574081 21.985016 39,000 139 455 0
2020-09-19 07:21:00 GMT 39.580902 21.977432 39,000 139 455 0
2020-09-19 07:20:56 GMT 39.588776 21.968596 39,000 139 455 0
2020-09-19 07:20:53 GMT 39.592770 21.964111 39,000 139 455 -64
2020-09-19 07:20:44 GMT 39.606087 21.949219 39,000 139 455 -64
2020-09-19 07:20:37 GMT 39.618118 21.935698 39,025 139 455 -64
2020-09-19 07:20:34 GMT 39.622559 21.930801 39,000 139 455 -64
2020-09-19 07:20:29 GMT 39.632309 21.919874 39,025 139 455 -64
2020-09-19 07:20:24 GMT 39.639278 21.912048 39,025 139 454 0
2020-09-19 07:20:21 GMT 39.643478 21.907335 39,025 139 454 0
2020-09-19 07:20:14 GMT 39.654968 21.894558 39,025 139 454 0
2020-09-19 07:20:11 GMT 39.658642 21.890381 39,025 139 454 0
2020-09-19 07:20:04 GMT 39.670670 21.877005 39,025 139 453 64
2020-09-19 07:20:00 GMT 39.676380 21.870605 39,000 139 453 64
2020-09-19 07:19:57 GMT 39.682709 21.863569 39,000 139 454 64
2020-09-19 07:19:53 GMT 39.688202 21.857418 39,000 139 454 64
2020-09-19 07:19:50 GMT 39.692230 21.852942 39,000 139 453 0
2020-09-19 07:19:46 GMT 39.699554 21.844702 39,000 139 453 0
2020-09-19 07:19:41 GMT 39.707104 21.836243 39,000 139 453 -64
2020-09-19 07:19:35 GMT 39.715897 21.826431 39,000 139 453 0
2020-09-19 07:19:32 GMT 39.721024 21.820679 39,025 139 453 0
2020-09-19 07:19:29 GMT 39.727215 21.813782 39,000 139 453 0
2020-09-19 07:19:22 GMT 39.736340 21.803528 39,000 139 453 0
2020-09-19 07:19:19 GMT 39.741879 21.797302 39,000 139 453 0
2020-09-19 07:19:12 GMT 39.752747 21.785112 39,000 139 453 64
2020-09-19 07:19:09 GMT 39.757706 21.779541 39,000 139 452 64
2020-09-19 07:19:04 GMT 39.767166 21.768932 39,000 139 452 64
2020-09-19 07:19:00 GMT 39.773254 21.762066 38,975 139 453 64
2020-09-19 07:18:52 GMT 39.785294 21.748571 38,975 139 452 0
2020-09-19 07:18:49 GMT 39.789967 21.743286 38,975 139 452 0
2020-09-19 07:18:42 GMT 39.800537 21.731375 38,975 139 452 -64
2020-09-19 07:18:39 GMT 39.805893 21.725344 39,000 139 452 -64
2020-09-19 07:18:32 GMT 39.816010 21.714001 39,000 139 451 0
2020-09-19 07:18:28 GMT 39.822235 21.706953 39,000 139 450 64
2020-09-19 07:18:22 GMT 39.831802 21.696266 38,975 139 451 0
2020-09-19 07:18:18 GMT 39.838669 21.688564 38,975 139 450 0
2020-09-19 07:18:13 GMT 39.847366 21.678833 38,975 139 451 -64
2020-09-19 07:18:08 GMT 39.854347 21.670898 39,000 138 451 -64
2020-09-19 07:18:02 GMT 39.863426 21.660583 39,000 138 451 -64
2020-09-19 07:17:58 GMT 39.870392 21.652739 39,000 138 451 -64
2020-09-19 07:17:50 GMT 39.882477 21.639006 39,025 138 450 -64
2020-09-19 07:17:47 GMT 39.887215 21.633667 39,025 138 450 -64
2020-09-19 07:17:40 GMT 39.898224 21.621214 39,025 139 450 0
2020-09-19 07:17:37 GMT 39.902802 21.616077 39,025 139 450 0
2020-09-19 07:17:31 GMT 39.912121 21.605591 39,025 139 449 64
2020-09-19 07:17:28 GMT 39.917564 21.599426 39,025 139 449 64
2020-09-19 07:17:25 GMT 39.921844 21.594704 39,000 139 449 0
2020-09-19 07:17:22 GMT 39.928116 21.587585 39,000 139 450 0
2020-09-19 07:17:18 GMT 39.933487 21.581518 39,000 139 450 0
2020-09-19 07:17:14 GMT 39.938515 21.575899 39,000 138 450 0
2020-09-19 07:17:09 GMT 39.946430 21.566912 39,000 138 450 0
2020-09-19 07:17:06 GMT 39.950958 21.561829 39,000 138 449 0
2020-09-19 07:17:03 GMT 39.955738 21.556299 39,000 138 449 64
2020-09-19 07:16:59 GMT 39.962769 21.548372 39,000 138 449 0
2020-09-19 07:16:56 GMT 39.967609 21.542816 39,000 138 449 -64
2020-09-19 07:16:51 GMT 39.975849 21.533453 39,000 138 450 0
2020-09-19 07:16:48 GMT 39.979019 21.529846 39,000 138 450 0
2020-09-19 07:16:45 GMT 39.984192 21.523987 39,000 138 450 0
2020-09-19 07:16:40 GMT 39.991837 21.515259 39,000 138 450 0
2020-09-19 07:16:36 GMT 39.998894 21.507235 39,000 138 450 0
2020-09-19 07:16:31 GMT 40.011108 21.493408 39,000 138 449 64
2020-09-19 07:16:25 GMT 40.016071 21.487761 39,000 138 449 64
2020-09-19 07:16:22 GMT 40.019794 21.483515 39,000 138 449 0
2020-09-19 07:16:18 GMT 40.026684 21.475588 39,000 138 449 64
2020-09-19 07:16:15 GMT 40.031433 21.470158 39,000 138 449 0
2020-09-19 07:16:12 GMT 40.036274 21.464663 39,000 138 449 0
2020-09-19 07:16:09 GMT 40.040836 21.459482 39,000 138 448 0
2020-09-19 07:16:05 GMT 40.047073 21.452366 39,000 138 448 0
2020-09-19 07:15:59 GMT 40.056107 21.442139 39,000 138 448 64
2020-09-19 07:15:55 GMT 40.063042 21.434263 39,000 138 448 0
2020-09-19 07:15:50 GMT 40.070583 21.425650 39,000 138 447 0
2020-09-19 07:15:47 GMT 40.075562 21.420044 39,000 138 447 64
2020-09-19 07:15:44 GMT 40.079475 21.415537 39,000 138 447 64
2020-09-19 07:15:41 GMT 40.084900 21.409363 38,975 138 447 64
2020-09-19 07:15:37 GMT 40.091217 21.402161 38,975 138 448 64
2020-09-19 07:15:31 GMT 40.100693 21.391418 38,975 138 447 0
2020-09-19 07:15:27 GMT 40.106613 21.384701 38,975 138 447 -64
2020-09-19 07:15:19 GMT 40.119095 21.370483 38,975 138 447 -64
2020-09-19 07:15:09 GMT 40.135059 21.352303 39,000 138 447 -64
2020-09-19 07:15:05 GMT 40.139877 21.346802 39,000 138 447 0
2020-09-19 07:14:58 GMT 40.151230 21.333862 39,000 138 447 -64
2020-09-19 07:14:55 GMT 40.155350 21.329163 39,000 138 447 -64
2020-09-19 07:14:46 GMT 40.170685 21.311707 39,000 138 446 -64
2020-09-19 07:14:38 GMT 40.182816 21.297913 39,000 138 446 -128
2020-09-19 07:14:35 GMT 40.186501 21.293690 39,025 138 446 -128
2020-09-19 07:14:28 GMT 40.198277 21.280205 39,025 138 445 0
2020-09-19 07:14:25 GMT 40.202232 21.275711 39,025 138 445 0
2020-09-19 07:14:18 GMT 40.218155 21.257507 39,025 138 445 64
2020-09-19 07:14:15 GMT 40.218155 21.257507 39,025 138 445 64
2020-09-19 07:14:07 GMT 40.230515 21.243347 39,025 138 446 -64
2020-09-19 07:14:04 GMT 40.234451 21.238831 39,025 138 446 -64
2020-09-19 07:13:57 GMT 40.245987 21.225586 39,025 138 446 -64
2020-09-19 07:13:54 GMT 40.250462 21.220467 39,025 138 446 -64
2020-09-19 07:13:47 GMT 40.261826 21.207458 39,050 138 445 -64
2020-09-19 07:13:44 GMT 40.266129 21.202515 39,050 138 445 0
2020-09-19 07:13:37 GMT 40.277416 21.189568 39,025 138 445 64
2020-09-19 07:13:33 GMT 40.282791 21.183411 39,050 138 445 64
2020-09-19 07:13:26 GMT 40.294544 21.169968 39,025 138 445 64
2020-09-19 07:13:23 GMT 40.299202 21.164598 39,025 138 445 64
2020-09-19 07:13:16 GMT 40.309753 21.152466 39,025 138 446 64
2020-09-19 07:13:13 GMT 40.314331 21.147217 39,025 138 446 64
2020-09-19 07:13:06 GMT 40.325459 21.134449 39,025 138 446 64
2020-09-19 07:13:03 GMT 40.330021 21.129206 39,000 138 446 64
2020-09-19 07:12:56 GMT 40.340588 21.117035 39,000 138 446 0
2020-09-19 07:12:53 GMT 40.356766 21.098450 39,000 138 445 64
2020-09-19 07:12:46 GMT 40.356766 21.098450 39,000 138 447 64
2020-09-19 07:12:42 GMT 40.362946 21.091370 39,000 138 446 0
2020-09-19 07:12:36 GMT 40.372101 21.080872 39,000 138 446 0
2020-09-19 07:12:32 GMT 40.377457 21.074711 39,000 138 446 0
2020-09-19 07:12:29 GMT 40.384644 21.066528 39,000 138 445 64
2020-09-19 07:12:25 GMT 40.388535 21.062038 39,000 138 445 64
2020-09-19 07:12:21 GMT 40.394119 21.055603 39,000 138 445 64
2020-09-19 07:12:18 GMT 40.398880 21.050171 39,000 138 445 64
2020-09-19 07:12:15 GMT 40.404083 21.044249 38,975 138 445 64
2020-09-19 07:12:12 GMT 40.409409 21.038086 38,975 138 445 64
2020-09-19 07:12:05 GMT 40.420052 21.025835 38,975 138 446 0
2020-09-19 07:12:01 GMT 40.435413 21.007919 38,975 139 444 0
2020-09-19 07:11:55 GMT 40.435413 21.007919 38,975 138 445 0
2020-09-19 07:11:51 GMT 40.440948 21.001465 38,975 138 445 0
2020-09-19 07:11:44 GMT 40.452126 20.988380 38,975 138 444 0
2020-09-19 07:11:41 GMT 40.456467 20.983398 38,975 138 444 64
2020-09-19 07:11:34 GMT 40.467113 20.971214 38,975 139 444 0
2020-09-19 07:11:30 GMT 40.473816 20.963684 38,975 139 444 0
2020-09-19 07:11:24 GMT 40.483017 20.953430 38,975 139 443 0
2020-09-19 07:11:20 GMT 40.488529 20.947308 38,975 139 443 0
2020-09-19 07:11:14 GMT 40.498726 20.935946 38,975 139 443 0
2020-09-19 07:11:10 GMT 40.504807 20.929199 38,975 139 443 -64
2020-09-19 07:11:06 GMT 40.510921 20.922338 38,975 139 443 -64
2020-09-19 07:11:03 GMT 40.515656 20.917114 38,975 139 442 -64
2020-09-19 07:10:59 GMT 40.521301 20.910789 38,975 139 442 -64
2020-09-19 07:10:53 GMT 40.531677 20.899231 38,975 139 442 -64
2020-09-19 07:10:49 GMT 40.537128 20.893187 39,000 139 442 -64
2020-09-19 07:10:46 GMT 40.542717 20.886946 39,000 139 442 -64
2020-09-19 07:10:43 GMT 40.546417 20.882812 39,000 139 442 -64
2020-09-19 07:10:38 GMT 40.555206 20.872986 39,000 139 441 -64
2020-09-19 07:10:33 GMT 40.562874 20.864410 39,000 139 441 -64
2020-09-19 07:10:28 GMT 40.570461 20.855921 39,000 139 441 0
2020-09-19 07:10:23 GMT 40.578468 20.846994 39,000 139 442 0
2020-09-19 07:10:18 GMT 40.586243 20.838318 39,000 139 442 0
2020-09-19 07:10:13 GMT 40.594109 20.829578 39,000 139 442 0
2020-09-19 07:10:08 GMT 40.601898 20.820862 39,000 139 441 0
2020-09-19 07:10:02 GMT 40.611008 20.810665 39,000 139 442 0
2020-09-19 07:09:57 GMT 40.618690 20.802052 39,000 139 441 0
2020-09-19 07:09:52 GMT 40.626480 20.793274 39,000 139 442 0
2020-09-19 07:09:46 GMT 40.634796 20.783886 39,000 139 441 0
2020-09-19 07:09:42 GMT 40.642090 20.775696 39,000 139 442 0
2020-09-19 07:09:36 GMT 40.651016 20.765686 39,000 139 442 0
2020-09-19 07:09:32 GMT 40.657700 20.758179 39,000 139 442 0
2020-09-19 07:09:26 GMT 40.667011 20.747807 39,000 139 442 0
2020-09-19 07:09:21 GMT 40.675018 20.738878 39,000 139 442 0
2020-09-19 07:09:16 GMT 40.682831 20.730103 39,000 139 441 0
2020-09-19 07:09:12 GMT 40.688938 20.723274 39,000 139 442 0
2020-09-19 07:09:05 GMT 40.699783 20.711039 39,000 139 442 0
2020-09-19 07:09:02 GMT 40.705261 20.704956 39,000 139 442 -64
2020-09-19 07:08:55 GMT 40.715332 20.693542 39,000 139 442 0
2020-09-19 07:08:51 GMT 40.720966 20.687256 39,000 139 442 0
2020-09-19 07:08:45 GMT 40.730461 20.676582 39,000 139 442 0
2020-09-19 07:08:42 GMT 40.734512 20.672058 39,000 139 442 0
2020-09-19 07:08:35 GMT 40.745964 20.659227 39,000 139 442 0
2020-09-19 07:08:32 GMT 40.749920 20.654797 39,000 139 442 0
2020-09-19 07:08:25 GMT 40.761612 20.641602 39,025 139 442 -64
2020-09-19 07:08:22 GMT 40.765980 20.636694 39,025 139 442 -64
2020-09-19 07:08:15 GMT 40.777294 20.623960 39,025 139 442 0
2020-09-19 07:08:12 GMT 40.781857 20.618778 39,025 139 442 64
2020-09-19 07:08:06 GMT 40.791351 20.608105 39,025 139 442 64
2020-09-19 07:08:02 GMT 40.797634 20.600988 39,000 139 442 64
2020-09-19 07:07:54 GMT 40.809723 20.587341 39,000 139 442 64
2020-09-19 07:07:51 GMT 40.814346 20.582092 39,000 139 443 64
2020-09-19 07:07:44 GMT 40.825195 20.569839 39,000 139 443 0
2020-09-19 07:07:41 GMT 40.829849 20.564596 39,000 139 443 0
2020-09-19 07:07:35 GMT 40.839069 20.554171 39,000 139 443 0
2020-09-19 07:07:31 GMT 40.845261 20.547180 39,000 139 443 -64
2020-09-19 07:07:23 GMT 40.857269 20.533571 39,000 139 443 -64
2020-09-19 07:07:20 GMT 40.863190 20.526917 39,000 139 442 -64
2020-09-19 07:07:13 GMT 40.872986 20.515869 39,025 139 443 -64
2020-09-19 07:07:10 GMT 40.877563 20.510681 39,025 139 442 0
2020-09-19 07:07:04 GMT 40.886902 20.500183 39,025 139 443 0
2020-09-19 07:07:00 GMT 40.894001 20.492125 39,025 139 443 0
2020-09-19 07:06:53 GMT 40.903915 20.480888 39,000 139 443 64
2020-09-19 07:06:49 GMT 40.909920 20.474022 39,000 139 443 0
2020-09-19 07:06:42 GMT 40.921139 20.461349 39,000 139 443 0
2020-09-19 07:06:39 GMT 40.925701 20.456106 39,000 139 443 0
2020-09-19 07:06:32 GMT 40.936981 20.443359 39,000 139 443 -64
2020-09-19 07:06:29 GMT 40.941624 20.438066 39,000 139 442 0
2020-09-19 07:06:22 GMT 40.952499 20.425720 39,025 139 442 -64
2020-09-19 07:06:18 GMT 40.958633 20.418762 39,025 139 442 0
2020-09-19 07:06:11 GMT 40.969227 20.406792 39,025 139 442 0
2020-09-19 07:06:08 GMT 40.974117 20.401237 39,025 139 442 0
2020-09-19 07:06:03 GMT 40.982529 20.391663 39,025 139 442 0
2020-09-19 07:05:58 GMT 40.990456 20.382635 39,025 139 442 0
2020-09-19 07:05:50 GMT 41.002003 20.369526 39,025 139 442 0
2020-09-19 07:05:47 GMT 41.007401 20.363346 39,025 139 442 0
2020-09-19 07:05:42 GMT 41.014435 20.355347 39,025 139 443 0
2020-09-19 07:05:36 GMT 41.023590 20.344971 39,025 139 443 0
2020-09-19 07:05:31 GMT 41.031189 20.336254 39,025 139 442 0
2020-09-19 07:05:26 GMT 41.039108 20.327271 39,025 139 442 0
2020-09-19 07:05:20 GMT 41.048088 20.317093 39,025 139 442 64
2020-09-19 07:05:16 GMT 41.054672 20.309570 39,000 139 442 64
2020-09-19 07:05:12 GMT 41.061401 20.301924 39,000 139 442 64
2020-09-19 07:05:07 GMT 41.068039 20.294373 39,000 139 442 64
2020-09-19 07:05:04 GMT 41.072807 20.288939 39,000 139 442 64
2020-09-19 07:05:01 GMT 41.077332 20.283752 39,000 139 442 64
2020-09-19 07:04:57 GMT 41.083603 20.276611 39,000 139 442 0
2020-09-19 07:04:54 GMT 41.088215 20.271336 39,000 139 442 0
2020-09-19 07:04:51 GMT 41.093719 20.265076 39,000 139 441 0
2020-09-19 07:04:45 GMT 41.103485 20.253920 39,000 139 441 0
2020-09-19 07:04:41 GMT 41.109676 20.246866 39,000 139 441 0
2020-09-19 07:04:34 GMT 41.119919 20.235130 39,000 139 441 0
2020-09-19 07:04:30 GMT 41.125214 20.229126 39,000 139 441 0
2020-09-19 07:04:24 GMT 41.135559 20.217285 39,000 139 440 0
2020-09-19 07:04:20 GMT 41.140961 20.211121 39,000 139 440 0
2020-09-19 07:04:13 GMT 41.151852 20.198675 39,000 139 440 64
2020-09-19 07:04:09 GMT 41.157906 20.191685 39,000 139 440 64
2020-09-19 07:04:06 GMT 41.163677 20.185068 39,000 139 440 64
2020-09-19 07:04:02 GMT 41.168335 20.179749 39,000 139 440 64
2020-09-19 07:03:59 GMT 41.173359 20.173958 39,000 139 440 64
2020-09-19 07:03:53 GMT 41.183441 20.162476 39,000 139 440 0
2020-09-19 07:03:50 GMT 41.187973 20.157288 38,975 139 440 0
2020-09-19 07:03:45 GMT 41.196579 20.147400 39,000 139 440 -64
2020-09-19 07:03:42 GMT 41.199417 20.144165 39,000 139 440 -64
2020-09-19 07:03:38 GMT 41.205460 20.137207 39,000 139 439 -64
2020-09-19 07:03:35 GMT 41.210136 20.131884 39,000 139 439 0
2020-09-19 07:03:32 GMT 41.214512 20.126827 39,000 139 439 0
2020-09-19 07:03:29 GMT 41.219925 20.120605 39,000 139 438 0
2020-09-19 07:03:21 GMT 41.231457 20.107353 39,000 139 438 64
2020-09-19 07:03:18 GMT 41.236267 20.101868 39,000 139 438 64
2020-09-19 07:03:11 GMT 41.247238 20.089251 38,975 138 438 0
2020-09-19 07:03:08 GMT 41.252472 20.083191 38,975 138 438 -64
2020-09-19 07:03:01 GMT 41.263206 20.070835 39,000 138 438 -64
2020-09-19 07:02:48 GMT 41.283035 20.047989 39,000 138 437 0
2020-09-19 07:02:38 GMT 41.298340 20.030396 39,000 139 438 0
2020-09-19 07:02:29 GMT 41.312210 20.014404 39,000 138 437 0
2020-09-19 07:02:19 GMT 41.326981 19.997427 39,000 138 437 0
2020-09-19 07:02:08 GMT 41.342903 19.979012 39,000 138 437 0
2020-09-19 07:01:58 GMT 41.359360 19.960022 39,000 139 436 64
2020-09-19 07:01:47 GMT 41.375584 19.941309 39,000 138 436 0
2020-09-19 07:01:37 GMT 41.390339 19.924217 39,000 138 436 0
2020-09-19 07:01:27 GMT 41.406166 19.905949 39,000 138 436 0
2020-09-19 07:01:17 GMT 41.421936 19.887688 39,000 138 435 0
2020-09-19 07:01:05 GMT 41.439266 19.867689 39,000 138 435 0
2020-09-19 07:00:55 GMT 41.453934 19.850672 39,000 138 435 0
2020-09-19 07:00:44 GMT 41.470966 19.830896 39,000 138 435 0
2020-09-19 07:00:39 GMT 41.478558 19.822083 39,000 138 435 0
2020-09-19 07:00:35 GMT 41.485352 19.814161 39,000 138 435 0
2020-09-19 07:00:30 GMT 41.494244 19.803879 39,000 138 435 0
2020-09-19 07:00:24 GMT 41.501816 19.795116 39,000 138 435 0
2020-09-19 07:00:19 GMT 41.509598 19.786064 39,000 138 435 0
2020-09-19 07:00:14 GMT 41.517380 19.776951 38,975 138 435 0
2020-09-19 07:00:08 GMT 41.525711 19.767277 39,000 138 435 0
2020-09-19 07:00:02 GMT 41.535461 19.755915 39,000 138 435 -64
2020-09-19 06:59:58 GMT 41.541092 19.749361 39,000 138 435 -64
2020-09-19 06:59:53 GMT 41.549240 19.739872 39,000 138 435 -64
2020-09-19 06:59:49 GMT 41.555786 19.732258 39,000 138 435 -64
2020-09-19 06:59:41 GMT 41.567413 19.718649 39,000 138 435 0
2020-09-19 06:59:37 GMT 41.572769 19.712406 39,000 138 434 0
2020-09-19 06:59:32 GMT 41.580460 19.703468 39,000 138 435 0
2020-09-19 06:59:26 GMT 41.589256 19.693249 39,000 138 435 0
2020-09-19 06:59:22 GMT 41.596100 19.685328 39,000 138 435 0
2020-09-19 06:59:16 GMT 41.604198 19.675940 39,000 138 435 0
2020-09-19 06:59:11 GMT 41.612137 19.666714 39,000 138 435 -64
2020-09-19 06:59:07 GMT 41.619564 19.658117 39,025 138 435 -64
2020-09-19 06:59:01 GMT 41.627747 19.648548 39,025 138 435 0
2020-09-19 06:58:56 GMT 41.634274 19.640936 39,025 138 435 0
2020-09-19 06:58:51 GMT 41.643219 19.630445 39,025 138 435 64
2020-09-19 06:58:47 GMT 41.649216 19.623434 39,025 138 435 0
2020-09-19 06:58:40 GMT 41.658691 19.612345 39,025 138 435 0
2020-09-19 06:58:30 GMT 41.674446 19.593861 39,025 138 436 0
2020-09-19 06:58:16 GMT 41.696274 19.568336 39,025 138 435 0
2020-09-19 06:57:47 GMT 41.739716 19.517275 39,025 138 436 64
2020-09-19 06:57:44 GMT 41.743469 19.512905 39,025 138 435 64
2020-09-19 06:57:39 GMT 41.751492 19.503414 39,000 138 435 64
2020-09-19 06:57:29 GMT 41.767086 19.485083 39,000 138 436 64
2020-09-19 06:57:19 GMT 41.782078 19.467583 39,000 138 436 64
2020-09-19 06:57:15 GMT 41.789017 19.459410 39,000 138 436 64
2020-09-19 06:57:08 GMT 41.798584 19.448174 39,000 138 435 0
2020-09-19 06:56:58 GMT 41.813690 19.430382 39,000 138 435 0
2020-09-19 06:56:48 GMT 41.828396 19.413033 38,975 138 435 0
2020-09-19 06:56:37 GMT 41.845001 19.393429 38,975 138 434 0
2020-09-19 06:56:27 GMT 41.859924 19.375826 39,000 138 435 -64
2020-09-19 06:56:17 GMT 41.875275 19.357845 39,000 138 435 0
2020-09-19 06:56:07 GMT 41.890358 19.340090 39,000 138 435 64
2020-09-19 06:55:57 GMT 41.905701 19.322081 39,000 138 434 64
2020-09-19 06:55:46 GMT 41.922199 19.302467 38,975 138 434 -64
2020-09-19 06:55:36 GMT 41.937195 19.284752 39,000 138 434 -64
2020-09-19 06:55:26 GMT 41.952412 19.266699 39,000 138 434 -64
2020-09-19 06:55:16 GMT 41.967587 19.248749 39,000 138 433 0
2020-09-19 06:55:05 GMT 41.983929 19.229397 39,000 138 433 0
2020-09-19 06:54:55 GMT 41.998825 19.211765 39,000 138 433 0
2020-09-19 06:54:45 GMT 42.013687 19.194115 39,000 138 433 0
2020-09-19 06:54:40 GMT 42.021698 19.184626 39,025 138 433 0
2020-09-19 06:54:34 GMT 42.029690 19.175167 39,025 138 433 0
2020-09-19 06:54:30 GMT 42.036579 19.166927 39,025 138 432 0
2020-09-19 06:54:24 GMT 42.044998 19.156910 39,025 138 433 0
2020-09-19 06:54:17 GMT 42.056076 19.143740 39,025 138 433 0
2020-09-19 06:54:14 GMT 42.060013 19.139120 39,025 138 433 0
2020-09-19 06:54:06 GMT 42.072376 19.124388 39,025 138 433 0
2020-09-19 06:54:03 GMT 42.076145 19.119852 39,025 138 433 64
2020-09-19 06:53:53 GMT 42.091187 19.101915 39,000 138 433 64
2020-09-19 06:53:43 GMT 42.106567 19.083565 39,000 138 433 0
2020-09-19 06:53:33 GMT 42.121582 19.065586 39,025 138 433 -64
2020-09-19 06:53:22 GMT 42.137737 19.046268 39,025 138 432 0
2020-09-19 06:53:12 GMT 42.152958 19.028130 39,025 138 432 64
2020-09-19 06:53:02 GMT 42.167725 19.010468 39,000 138 432 64
2020-09-19 06:52:51 GMT 42.184010 18.991018 39,000 138 432 -64
2020-09-19 06:52:41 GMT 42.199184 18.972878 39,025 138 432 -64
2020-09-19 06:52:32 GMT 42.213474 18.955759 39,025 138 432 64
2020-09-19 06:52:20 GMT 42.229958 18.936022 39,000 138 432 0
2020-09-19 06:52:10 GMT 42.244946 18.918139 39,025 138 431 0
2020-09-19 06:52:01 GMT 42.259705 18.900509 39,025 138 430 0
2020-09-19 06:51:50 GMT 42.274879 18.882303 39,025 138 431 0
2020-09-19 06:51:40 GMT 42.289822 18.864420 39,025 138 430 0
2020-09-19 06:51:29 GMT 42.306114 18.844746 39,025 138 430 0
2020-09-19 06:51:16 GMT 42.325241 18.821701 39,025 138 430 0
2020-09-19 06:51:09 GMT 42.335815 18.809031 39,025 138 429 0
2020-09-19 06:50:59 GMT 42.350945 18.790836 39,025 138 429 0
2020-09-19 06:50:42 GMT 42.375572 18.761135 39,050 138 429 0
2020-09-19 06:50:29 GMT 42.394775 18.737993 39,050 138 429 0
2020-09-19 06:50:20 GMT 42.408436 18.721407 39,050 138 429 0
2020-09-19 06:50:09 GMT 42.424988 18.701414 39,050 138 428 64
2020-09-19 06:50:06 GMT 42.429977 18.695421 39,050 138 428 64
2020-09-19 06:49:58 GMT 42.441814 18.681101 39,025 138 428 0
2020-09-19 06:49:45 GMT 42.460785 18.658031 39,050 138 429 -64
2020-09-19 06:49:37 GMT 42.472687 18.643612 39,050 138 427 0
2020-09-19 06:49:32 GMT 42.481056 18.633451 39,050 138 427 64
2020-09-19 06:49:26 GMT 42.487854 18.625275 39,050 138 427 0
2020-09-19 06:49:17 GMT 42.502396 18.607719 39,050 138 427 0
2020-09-19 06:49:08 GMT 42.515396 18.591988 39,050 138 427 0
2020-09-19 06:49:05 GMT 42.518600 18.588118 39,025 138 427 0
2020-09-19 06:49:01 GMT 42.526062 18.579067 39,025 138 426 0
2020-09-19 06:48:55 GMT 42.533478 18.570087 39,025 138 426 0
2020-09-19 06:48:52 GMT 42.538696 18.563772 39,050 138 426 0
2020-09-19 06:48:43 GMT 42.553867 18.545305 39,025 138 424 64
2020-09-19 06:48:35 GMT 42.563004 18.534185 39,025 138 424 64
2020-09-19 06:48:32 GMT 42.568390 18.527613 39,025 138 424 64
2020-09-19 06:48:09 GMT 42.601070 18.487820 39,000 137 424 64
2020-09-19 06:48:03 GMT 42.610241 18.476641 39,000 137 423 0
2020-09-19 06:48:00 GMT 42.613770 18.472324 39,000 137 423 0
2020-09-19 06:47:54 GMT 42.623180 18.460735 39,000 137 422 0
2020-09-19 06:47:51 GMT 42.627651 18.455307 39,000 137 422 0
2020-09-19 06:47:44 GMT 42.637615 18.443171 39,000 137 421 192
2020-09-19 06:47:41 GMT 42.642014 18.437805 39,000 137 421 192
2020-09-19 06:47:34 GMT 42.652325 18.425222 38,950 137 421 128
2020-09-19 06:47:29 GMT 42.659454 18.416519 38,950 137 421 0
2020-09-19 06:47:20 GMT 42.672821 18.400227 38,950 138 420 0
2020-09-19 06:47:13 GMT 42.682816 18.388046 38,950 138 420 0
2020-09-19 06:47:07 GMT 42.693054 18.375570 38,950 138 420 0
2020-09-19 06:47:03 GMT 42.696945 18.370827 38,950 138 420 0
2020-09-19 06:46:53 GMT 42.711819 18.352789 38,950 137 419 0
2020-09-19 06:46:49 GMT 42.717636 18.345634 38,950 137 419 0
2020-09-19 06:46:41 GMT 42.727844 18.333185 38,950 137 419 0
2020-09-19 06:46:32 GMT 42.742123 18.315805 38,950 138 419 0
2020-09-19 06:46:22 GMT 42.756416 18.298368 38,950 138 420 -64
2020-09-19 06:46:11 GMT 42.772011 18.279333 38,975 138 420 -64
2020-09-19 06:46:01 GMT 42.785934 18.262337 39,000 137 420 0
2020-09-19 06:45:50 GMT 42.802048 18.242361 39,000 137 421 0
2020-09-19 06:45:40 GMT 42.816559 18.224422 39,000 138 422 -64
2020-09-19 06:45:30 GMT 42.831131 18.207418 39,000 140 422 -64
2020-09-19 06:45:20 GMT 42.846539 18.190613 39,025 141 423 -64
2020-09-19 06:45:10 GMT 42.862106 18.173750 39,025 141 423 0
2020-09-19 06:45:00 GMT 42.877533 18.157143 39,025 141 425 128
2020-09-19 06:44:49 GMT 42.910217 18.122332 39,000 142 426 128
2020-09-19 06:44:39 GMT 42.910217 18.122332 39,000 142 427 64
2020-09-19 06:44:28 GMT 42.927074 18.104357 39,000 141 428 -128
2020-09-19 06:44:18 GMT 42.942581 18.087711 39,025 141 428 0
2020-09-19 06:44:08 GMT 42.958145 18.070913 39,000 141 429 64
2020-09-19 06:43:57 GMT 42.974697 18.052958 39,000 141 430 64
2020-09-19 06:43:47 GMT 42.990341 18.036018 39,000 141 431 0
2020-09-19 06:43:37 GMT 43.005936 18.019175 39,000 141 431 0
2020-09-19 06:43:27 GMT 43.021408 18.002312 39,000 141 431 0
2020-09-19 06:43:07 GMT 43.053230 17.967878 39,000 141 433 -64
2020-09-19 06:43:04 GMT 43.059540 17.961050 39,025 141 434 -64
2020-09-19 06:42:53 GMT 43.075104 17.944187 39,025 141 434 0
2020-09-19 06:42:44 GMT 43.088974 17.929113 39,025 141 434 64
2020-09-19 06:42:34 GMT 43.105183 17.911638 39,000 141 435 64
2020-09-19 06:42:25 GMT 43.119431 17.896271 39,000 141 436 0
2020-09-19 06:42:15 GMT 43.134933 17.879419 39,000 141 436 -64
2020-09-19 06:42:06 GMT 43.150635 17.862364 39,025 141 436 0
2020-09-19 06:41:54 GMT 43.167892 17.843649 39,000 141 436 0
2020-09-19 06:41:45 GMT 43.183182 17.826979 39,025 141 437 0
2020-09-19 06:41:35 GMT 43.198517 17.810307 39,025 141 437 -64
2020-09-19 06:41:24 GMT 43.215885 17.791376 39,025 141 437 0
2020-09-19 06:41:17 GMT 43.226780 17.779476 39,025 141 438 0
2020-09-19 06:41:14 GMT 43.231659 17.774155 39,025 141 438 0
2020-09-19 06:41:11 GMT 43.236557 17.768789 39,025 141 439 0
2020-09-19 06:41:05 GMT 43.246765 17.757610 39,025 141 438 64
2020-09-19 06:41:00 GMT 43.254181 17.749563 39,025 141 438 64
2020-09-19 06:40:54 GMT 43.263649 17.739258 39,025 141 439 64
2020-09-19 06:40:44 GMT 43.279522 17.721928 39,000 141 440 0
2020-09-19 06:40:40 GMT 43.285629 17.715326 39,000 141 440 64
2020-09-19 06:40:33 GMT 43.296387 17.703445 39,000 141 440 0
2020-09-19 06:40:30 GMT 43.301880 17.697506 39,000 141 440 -64
2020-09-19 06:40:23 GMT 43.312408 17.686008 39,000 141 440 -64
2020-09-19 06:40:20 GMT 43.318130 17.679749 39,000 141 440 -64
2020-09-19 06:40:12 GMT 43.330498 17.666145 39,025 141 440 64
2020-09-19 06:40:02 GMT 43.345413 17.649857 39,000 141 439 64
2020-09-19 06:39:52 GMT 43.362061 17.631554 39,000 141 440 0
2020-09-19 06:39:42 GMT 43.378212 17.613766 39,000 141 440 -64
2020-09-19 06:39:31 GMT 43.394257 17.596201 39,025 141 440 0
2020-09-19 06:39:20 GMT 43.412659 17.576017 39,025 141 440 0
2020-09-19 06:39:11 GMT 43.427418 17.559814 39,025 141 440 0
2020-09-19 06:38:59 GMT 43.445068 17.540375 39,025 141 440 64
2020-09-19 06:38:50 GMT 43.459763 17.524279 39,000 141 440 64
2020-09-19 06:38:44 GMT 43.469788 17.513102 39,000 141 440 64
2020-09-19 06:38:41 GMT 43.473862 17.508694 39,000 141 440 64
2020-09-19 06:38:38 GMT 43.481003 17.500774 39,000 141 440 64
2020-09-19 06:38:23 GMT 43.503250 17.476305 39,000 141 440 0
2020-09-19 06:38:15 GMT 43.516102 17.462114 39,000 141 440 -64
2020-09-19 06:38:09 GMT 43.524712 17.452633 39,000 141 440 0
2020-09-19 06:38:05 GMT 43.531788 17.444784 39,000 141 440 64
2020-09-19 06:38:01 GMT 43.538956 17.436899 39,000 141 440 0
2020-09-19 06:37:56 GMT 43.547379 17.427574 39,000 141 439 0
2020-09-19 06:37:49 GMT 43.556030 17.417994 39,000 141 439 -64
2020-09-19 06:37:46 GMT 43.561844 17.411543 39,025 141 439 -64
2020-09-19 06:37:40 GMT 43.571732 17.400555 39,025 141 439 0
2020-09-19 06:37:35 GMT 43.578526 17.393059 39,025 141 439 0
2020-09-19 06:37:28 GMT 43.590363 17.379860 39,000 141 439 0
2020-09-19 06:37:25 GMT 43.594528 17.375261 39,000 141 439 0
2020-09-19 06:37:19 GMT 43.604691 17.363956 39,000 141 439 0
2020-09-19 06:37:07 GMT 43.623589 17.342964 39,000 141 439 0
2020-09-19 06:36:57 GMT 43.639481 17.325377 39,000 141 438 64
2020-09-19 06:36:53 GMT 43.644974 17.319307 39,000 141 438 64
2020-09-19 06:36:47 GMT 43.653988 17.309286 36,950 141 438 0
2020-09-19 06:36:40 GMT 43.668186 17.293528 39,000 141 438 0
2020-09-19 06:36:37 GMT 43.671158 17.290245 39,000 141 438 64
2020-09-19 06:36:33 GMT 43.676880 17.283794 39,000 141 438 64
2020-09-19 06:36:27 GMT 43.685532 17.274214 39,000 141 438 0
2020-09-19 06:36:17 GMT 43.702309 17.255531 39,000 141 438 0
2020-09-19 06:36:13 GMT 43.708317 17.248861 39,000 141 438 0
2020-09-19 06:36:07 GMT 43.717300 17.238857 39,000 141 438 0
2020-09-19 06:35:59 GMT 43.731216 17.223370 39,000 140 437 0
2020-09-19 06:35:55 GMT 43.737579 17.216215 38,975 141 438 0
2020-09-19 06:35:48 GMT 43.748337 17.204206 38,975 140 437 0
2020-09-19 06:35:45 GMT 43.753235 17.198713 38,975 140 437 0
2020-09-19 06:35:39 GMT 43.764084 17.186605 38,975 141 438 0
2020-09-19 06:35:27 GMT 43.780884 17.167927 38,975 141 438 0
2020-09-19 06:35:18 GMT 43.795227 17.151947 39,000 141 438 0
2020-09-19 06:35:08 GMT 43.811054 17.134356 39,000 141 437 0
2020-09-19 06:34:58 GMT 43.826523 17.117020 39,000 141 437 0
2020-09-19 06:34:54 GMT 43.832844 17.109964 38,975 141 437 0
2020-09-19 06:34:48 GMT 43.842499 17.099134 39,000 141 437 -64
2020-09-19 06:34:45 GMT 43.847134 17.093943 39,000 141 437 -64
2020-09-19 06:34:34 GMT 43.865524 17.073330 39,000 140 437 -64
2020-09-19 06:34:28 GMT 43.873947 17.063860 39,000 140 437 0
2020-09-19 06:34:24 GMT 43.881866 17.054934 39,000 140 437 -64
2020-09-19 06:34:20 GMT 43.886581 17.049568 39,000 140 437 -64
2020-09-19 06:34:14 GMT 43.895687 17.039272 39,000 140 437 0
2020-09-19 06:34:03 GMT 43.913223 17.019419 39,000 140 437 0
2020-09-19 06:33:59 GMT 43.919540 17.012329 39,000 140 437 0
2020-09-19 06:33:54 GMT 43.927322 17.003578 39,000 141 437 0
2020-09-19 06:33:44 GMT 43.942753 16.986301 39,000 141 437 0
2020-09-19 06:33:39 GMT 43.950668 16.977453 39,000 141 437 0
2020-09-19 06:33:36 GMT 43.955383 16.972281 39,000 141 437 0
2020-09-19 06:33:28 GMT 43.967892 16.958313 39,000 141 438 0
2020-09-19 06:33:25 GMT 43.973969 16.951456 39,000 140 437 0
2020-09-19 06:33:22 GMT 43.981483 16.943075 39,000 140 437 0
2020-09-19 06:33:15 GMT 43.988373 16.935228 39,000 140 437 0
2020-09-19 06:33:12 GMT 43.992508 16.930571 39,000 140 437 0
2020-09-19 06:33:08 GMT 44.000618 16.921431 39,000 140 438 0
2020-09-19 06:33:05 GMT 44.003597 16.918030 39,000 140 438 0
2020-09-19 06:33:02 GMT 44.008392 16.912558 39,000 140 437 0
2020-09-19 06:32:56 GMT 44.018631 16.900963 39,000 140 437 0
2020-09-19 06:32:52 GMT 44.023865 16.895056 39,000 140 437 0
2020-09-19 06:32:49 GMT 44.029293 16.888929 39,000 140 438 0
2020-09-19 06:32:46 GMT 44.035583 16.881771 39,000 140 438 0
2020-09-19 06:32:41 GMT 44.041214 16.875319 39,000 140 439 0
2020-09-19 06:32:35 GMT 44.051453 16.863688 39,000 140 438 0
2020-09-19 06:32:30 GMT 44.058792 16.855391 39,000 140 438 0
2020-09-19 06:32:22 GMT 44.072617 16.839678 39,000 140 438 0
2020-09-19 06:32:11 GMT 44.088684 16.821474 39,025 140 439 0
2020-09-19 06:32:05 GMT 44.100220 16.808378 39,025 140 438 0
2020-09-19 06:31:53 GMT 44.116158 16.790249 39,000 140 438 0
2020-09-19 06:31:49 GMT 44.123375 16.782074 39,000 140 438 64
2020-09-19 06:31:40 GMT 44.137161 16.766478 39,000 140 438 64
2020-09-19 06:31:37 GMT 44.141994 16.760950 39,000 140 439 64
2020-09-19 06:31:33 GMT 44.148003 16.754215 39,000 140 439 64
2020-09-19 06:31:28 GMT 44.156021 16.745081 39,000 140 439 64
2020-09-19 06:31:23 GMT 44.163921 16.736101 39,000 140 439 0
2020-09-19 06:31:19 GMT 44.169926 16.729235 39,000 140 438 0
2020-09-19 06:31:12 GMT 44.180542 16.717136 39,000 140 439 0
2020-09-19 06:31:00 GMT 44.200241 16.694708 39,000 140 439 0
2020-09-19 06:30:53 GMT 44.216850 16.675838 39,000 140 438 -64
2020-09-19 06:30:49 GMT 44.216850 16.675838 39,000 140 438 -64
2020-09-19 06:30:42 GMT 44.228394 16.662727 39,000 140 438 -64
2020-09-19 06:30:38 GMT 44.234543 16.655676 39,000 140 438 -64
2020-09-19 06:30:32 GMT 44.244278 16.644678 39,000 140 438 0
2020-09-19 06:30:28 GMT 44.249634 16.638533 39,000 140 438 0
2020-09-19 06:30:24 GMT 44.257771 16.629213 39,000 140 439 0
2020-09-19 06:30:21 GMT 44.261673 16.624800 39,000 140 438 0
2020-09-19 06:30:10 GMT 44.278114 16.605902 39,000 140 438 0
2020-09-19 06:30:03 GMT 44.289146 16.593307 39,000 140 438 0
2020-09-19 06:30:00 GMT 44.293396 16.588440 39,000 140 437 0
2020-09-19 06:29:57 GMT 44.298134 16.583057 39,000 140 437 0
2020-09-19 06:29:52 GMT 44.306396 16.573595 39,000 140 437 0
2020-09-19 06:29:49 GMT 44.311020 16.568363 39,000 140 438 0
2020-09-19 06:29:43 GMT 44.322235 16.555546 39,000 140 438 0
2020-09-19 06:29:37 GMT 44.329788 16.546951 39,000 140 438 0
2020-09-19 06:29:31 GMT 44.340683 16.534424 39,025 140 438 0
2020-09-19 06:29:27 GMT 44.345123 16.529324 39,025 140 438 0
2020-09-19 06:29:19 GMT 44.357803 16.514740 39,025 140 438 0
2020-09-19 06:29:16 GMT 44.363159 16.508528 39,025 140 438 0
2020-09-19 06:29:10 GMT 44.373276 16.496952 39,025 140 438 0
2020-09-19 06:29:05 GMT 44.379177 16.490145 39,000 140 439 0
2020-09-19 06:28:51 GMT 44.401245 16.464821 39,000 140 438 64
2020-09-19 06:28:47 GMT 44.408276 16.456783 39,000 140 438 64
2020-09-19 06:28:39 GMT 44.420746 16.442478 39,000 140 439 64
2020-09-19 06:28:30 GMT 44.436905 16.423824 39,000 140 439 0
2020-09-19 06:28:21 GMT 44.452744 16.405661 39,000 140 439 0
2020-09-19 06:28:18 GMT 44.452744 16.405661 39,000 140 439 0
2020-09-19 06:28:14 GMT 44.459290 16.398142 39,000 140 438 0
2020-09-19 06:28:11 GMT 44.464188 16.392517 39,000 140 438 0
2020-09-19 06:28:08 GMT 44.469536 16.386375 39,000 140 438 0
2020-09-19 06:27:58 GMT 44.484283 16.369497 39,000 140 438 0
2020-09-19 06:27:48 GMT 44.499847 16.351515 39,000 140 438 -64
2020-09-19 06:27:37 GMT 44.517300 16.331310 39,000 140 438 0
2020-09-19 06:27:26 GMT 44.535084 16.310678 39,000 140 437 0
2020-09-19 06:27:22 GMT 44.540482 16.304516 39,000 140 438 0
2020-09-19 06:27:17 GMT 44.548737 16.294949 39,000 140 438 64
2020-09-19 06:27:14 GMT 44.552856 16.290174 39,000 140 438 0
2020-09-19 06:27:09 GMT 44.560593 16.281151 39,000 140 437 0
2020-09-19 06:27:06 GMT 44.565262 16.275723 39,000 140 437 0
2020-09-19 06:27:03 GMT 44.569885 16.270426 39,000 140 437 0
2020-09-19 06:26:57 GMT 44.580414 16.258196 39,000 140 438 0
2020-09-19 06:26:54 GMT 44.584846 16.253067 39,000 140 438 0
2020-09-19 06:26:49 GMT 44.591969 16.244761 39,000 140 438 0
2020-09-19 06:26:44 GMT 44.599976 16.235516 39,000 140 437 0
2020-09-19 06:26:41 GMT 44.604630 16.230076 39,000 140 437 0
2020-09-19 06:26:37 GMT 44.613152 16.220242 39,000 140 438 64
2020-09-19 06:26:33 GMT 44.617294 16.215418 39,000 140 438 64
2020-09-19 06:26:26 GMT 44.627956 16.203026 38,975 140 438 0
2020-09-19 06:26:22 GMT 44.634705 16.195156 39,000 140 438 0
2020-09-19 06:26:19 GMT 44.639454 16.189627 39,000 140 438 -64
2020-09-19 06:26:16 GMT 44.646015 16.181990 39,000 140 438 0
2020-09-19 06:26:12 GMT 44.650497 16.176781 39,000 140 438 0
2020-09-19 06:26:09 GMT 44.655514 16.171003 39,000 140 438 0
2020-09-19 06:26:06 GMT 44.659515 16.166315 39,000 140 438 0
2020-09-19 06:26:02 GMT 44.664871 16.160040 39,000 140 438 64
2020-09-19 06:25:56 GMT 44.674118 16.149248 39,000 140 437 0
2020-09-19 06:25:53 GMT 44.679859 16.142599 39,000 140 437 0
2020-09-19 06:25:50 GMT 44.683399 16.138514 39,000 140 437 0
2020-09-19 06:25:45 GMT 44.693436 16.126818 39,000 140 438 -64
2020-09-19 06:25:40 GMT 44.698948 16.120426 39,000 140 438 -64
2020-09-19 06:25:37 GMT 44.705429 16.112888 39,000 140 437 0
2020-09-19 06:25:33 GMT 44.710072 16.107498 39,000 140 437 0
2020-09-19 06:25:30 GMT 44.715546 16.101118 39,000 140 437 0
2020-09-19 06:25:27 GMT 44.719570 16.096512 39,000 140 437 64
2020-09-19 06:25:24 GMT 44.725067 16.090067 39,000 140 437 0
2020-09-19 06:25:21 GMT 44.728645 16.085995 39,000 140 437 0
2020-09-19 06:25:13 GMT 44.741169 16.071390 39,000 140 438 0
2020-09-19 06:25:10 GMT 44.746353 16.065348 39,000 140 438 0
2020-09-19 06:25:03 GMT 44.758026 16.051744 39,000 140 437 0
2020-09-19 06:25:00 GMT 44.761139 16.048082 39,000 140 437 0
2020-09-19 06:24:56 GMT 44.768867 16.039034 39,000 140 438 0
2020-09-19 06:24:53 GMT 44.773384 16.033810 39,000 140 438 0
2020-09-19 06:24:48 GMT 44.780132 16.025904 39,000 140 438 0
2020-09-19 06:24:45 GMT 44.785446 16.019636 39,000 140 438 -64
2020-09-19 06:24:42 GMT 44.790070 16.014339 39,025 140 437 -64
2020-09-19 06:24:39 GMT 44.801361 16.001051 39,025 140 437 -64
2020-09-19 06:24:35 GMT 44.801361 16.001051 39,025 140 437 -64
2020-09-19 06:24:32 GMT 44.805130 15.996682 39,025 140 437 -64
2020-09-19 06:24:29 GMT 44.810577 15.990266 39,025 140 437 0
2020-09-19 06:24:26 GMT 44.816910 15.982897 39,025 140 437 0
2020-09-19 06:24:22 GMT 44.820774 15.978341 39,025 140 437 0
2020-09-19 06:24:19 GMT 44.825180 15.973206 39,025 140 437 0
2020-09-19 06:24:15 GMT 44.832180 15.964943 39,025 140 438 0
2020-09-19 06:24:12 GMT 44.836742 15.959651 39,025 140 438 0
2020-09-19 06:24:09 GMT 44.841751 15.953718 39,025 140 438 0
2020-09-19 06:24:04 GMT 44.849312 15.944914 39,025 140 438 0
2020-09-19 06:23:59 GMT 44.856812 15.936127 39,025 140 438 64
2020-09-19 06:23:55 GMT 44.862259 15.929783 39,025 140 438 0
2020-09-19 06:23:52 GMT 44.869858 15.920890 39,025 140 438 64
2020-09-19 06:23:49 GMT 44.873005 15.917247 39,025 140 438 64
2020-09-19 06:23:45 GMT 44.879337 15.909744 39,025 140 438 64
2020-09-19 06:23:39 GMT 44.888489 15.898982 39,000 140 439 0
2020-09-19 06:23:34 GMT 44.896042 15.890154 39,000 140 439 0
2020-09-19 06:23:31 GMT 44.900345 15.885053 39,000 140 439 0
2020-09-19 06:23:28 GMT 44.904243 15.880469 39,000 140 439 0
2020-09-19 06:23:22 GMT 44.916870 15.865631 39,000 140 438 0
2020-09-19 06:23:18 GMT 44.919975 15.861980 39,000 140 438 0
2020-09-19 06:23:14 GMT 44.927567 15.853071 39,000 140 439 0
2020-09-19 06:23:10 GMT 44.934643 15.844764 39,000 139 438 64
2020-09-19 06:23:07 GMT 44.936874 15.842084 39,000 139 438 64
2020-09-19 06:23:03 GMT 44.944416 15.833175 39,000 139 438 0
2020-09-19 06:23:00 GMT 44.949188 15.827571 39,000 139 438 64
2020-09-19 06:22:54 GMT 44.958435 15.816650 39,000 139 438 0
2020-09-19 06:22:51 GMT 44.963921 15.810197 39,000 140 438 0
2020-09-19 06:22:48 GMT 44.967682 15.805729 39,000 140 438 -64
2020-09-19 06:22:43 GMT 44.975048 15.797000 39,000 140 438 64
2020-09-19 06:22:40 GMT 44.979610 15.791708 39,000 140 438 0
2020-09-19 06:22:37 GMT 44.983616 15.787019 39,000 140 438 64
2020-09-19 06:22:33 GMT 44.990570 15.778852 39,000 140 438 64
2020-09-19 06:22:30 GMT 44.995514 15.773032 39,000 140 438 64
2020-09-19 06:22:26 GMT 45.000839 15.766721 39,000 140 438 64
2020-09-19 06:22:21 GMT 45.009449 15.756605 38,975 140 438 64
2020-09-19 06:22:17 GMT 45.015701 15.749228 38,975 140 438 0
2020-09-19 06:22:14 GMT 45.021652 15.742231 38,975 140 438 0
2020-09-19 06:22:09 GMT 45.028488 15.734097 38,975 139 437 0
2020-09-19 06:22:06 GMT 45.031677 15.730329 38,975 139 437 0
2020-09-19 06:22:03 GMT 45.037079 15.723921 38,975 139 436 0
2020-09-19 06:21:56 GMT 45.047241 15.711888 38,975 140 438 0
2020-09-19 06:21:53 GMT 45.052975 15.705090 38,975 140 438 0
2020-09-19 06:21:50 GMT 45.056980 15.700334 38,975 140 438 0
2020-09-19 06:21:46 GMT 45.068432 15.686802 38,975 140 438 64
2020-09-19 06:21:43 GMT 45.068432 15.686802 38,950 140 437 64
2020-09-19 06:21:37 GMT 45.077976 15.675548 38,975 140 437 128
2020-09-19 06:21:33 GMT 45.084072 15.668313 38,975 140 437 128
2020-09-19 06:21:28 GMT 45.093063 15.657676 38,950 140 437 64
2020-09-19 06:21:24 GMT 45.097961 15.651855 38,950 140 437 0
2020-09-19 06:21:21 GMT 45.102741 15.646206 38,950 140 437 0
2020-09-19 06:21:17 GMT 45.108932 15.638904 38,950 139 437 0
2020-09-19 06:21:13 GMT 45.115170 15.631401 38,950 139 437 0
2020-09-19 06:21:06 GMT 45.124969 15.619747 38,975 139 437 -64
2020-09-19 06:21:03 GMT 45.131836 15.611572 38,975 139 437 -64
2020-09-19 06:21:00 GMT 45.136539 15.605945 38,975 140 437 -64
2020-09-19 06:20:55 GMT 45.142548 15.598886 38,975 140 437 -64
2020-09-19 06:20:52 GMT 45.147289 15.593217 38,975 140 437 -64
2020-09-19 06:20:47 GMT 45.156464 15.582365 38,975 140 437 -64
2020-09-19 06:20:44 GMT 45.159767 15.578479 38,975 139 436 -64
2020-09-19 06:20:40 GMT 45.165680 15.571378 38,975 139 436 -64
2020-09-19 06:20:37 GMT 45.172428 15.563407 39,000 139 437 -64
2020-09-19 06:20:34 GMT 45.174522 15.560861 39,000 139 437 0
2020-09-19 06:20:31 GMT 45.179214 15.555267 39,000 139 437 0
2020-09-19 06:20:28 GMT 45.193287 15.538419 39,000 140 438 -64
2020-09-19 06:20:23 GMT 45.193287 15.538419 39,000 139 437 0
2020-09-19 06:20:19 GMT 45.197941 15.532926 39,000 139 437 0
2020-09-19 06:20:16 GMT 45.204037 15.525624 39,000 139 437 0
2020-09-19 06:20:11 GMT 45.210091 15.518456 39,000 140 437 -64
2020-09-19 06:20:08 GMT 45.214745 15.512896 39,000 140 437 -64
2020-09-19 06:20:04 GMT 45.221603 15.504783 39,000 140 438 -64
2020-09-19 06:20:01 GMT 45.225586 15.500074 39,025 140 437 -64
2020-09-19 06:19:58 GMT 45.235657 15.488107 39,025 139 437 0
2020-09-19 06:19:55 GMT 45.235657 15.488107 39,025 139 437 0
2020-09-19 06:19:52 GMT 45.241196 15.481502 39,025 139 437 0
2020-09-19 06:19:49 GMT 45.245728 15.476140 39,025 139 437 0
2020-09-19 06:19:45 GMT 45.250729 15.470157 39,025 139 437 0
2020-09-19 06:19:42 GMT 45.254642 15.465534 39,025 139 437 0
2020-09-19 06:19:39 GMT 45.259995 15.459103 39,025 139 438 0
2020-09-19 06:19:35 GMT 45.267563 15.450047 39,025 139 438 0
2020-09-19 06:19:31 GMT 45.272377 15.444299 39,025 139 439 0
2020-09-19 06:19:28 GMT 45.277126 15.438605 39,025 139 439 0
2020-09-19 06:19:25 GMT 45.281754 15.433110 39,025 139 439 0
2020-09-19 06:19:22 GMT 45.285366 15.428690 39,025 139 439 0
2020-09-19 06:19:19 GMT 45.290817 15.422189 39,025 139 439 0
2020-09-19 06:19:15 GMT 45.297318 15.414342 39,025 139 440 0
2020-09-19 06:19:12 GMT 45.301849 15.408848 39,025 139 440 0
2020-09-19 06:19:06 GMT 45.312881 15.395508 39,025 139 441 0
2020-09-19 06:19:02 GMT 45.317627 15.389769 39,025 139 441 64
2020-09-19 06:18:56 GMT 45.326614 15.378963 39,025 139 441 0
2020-09-19 06:18:51 GMT 45.333591 15.370610 39,025 139 441 0
2020-09-19 06:18:45 GMT 45.344345 15.357748 39,025 139 441 64
2020-09-19 06:18:41 GMT 45.349979 15.351049 39,025 140 442 64
2020-09-19 06:18:35 GMT 45.360081 15.339058 39,000 139 442 0
2020-09-19 06:18:30 GMT 45.369301 15.328004 39,000 139 443 0
2020-09-19 06:18:25 GMT 45.376747 15.319095 39,025 139 442 -64
2020-09-19 06:18:21 GMT 45.380585 15.314484 39,025 139 442 0
2020-09-19 06:18:18 GMT 45.386009 15.307974 39,025 139 443 0
2020-09-19 06:18:14 GMT 45.392578 15.300097 39,000 139 443 0
2020-09-19 06:18:11 GMT 45.397182 15.294510 39,000 139 442 64
2020-09-19 06:18:07 GMT 45.404026 15.286270 39,025 139 442 -64
2020-09-19 06:18:02 GMT 45.410568 15.278386 39,025 139 443 0
2020-09-19 06:17:59 GMT 45.415237 15.272696 39,025 139 442 0
2020-09-19 06:17:53 GMT 45.425034 15.260860 39,025 139 443 64
2020-09-19 06:17:50 GMT 45.429749 15.255171 39,000 139 443 64
2020-09-19 06:17:44 GMT 45.438568 15.244535 39,000 139 443 0
2020-09-19 06:17:41 GMT 45.443920 15.238037 39,000 139 444 0
2020-09-19 06:17:38 GMT 45.448811 15.232142 39,000 139 444 64
2020-09-19 06:17:33 GMT 45.455978 15.223433 39,000 139 444 64
2020-09-19 06:17:30 GMT 45.462311 15.215796 39,000 139 444 64
2020-09-19 06:17:23 GMT 45.472412 15.203604 39,000 139 444 0
2020-09-19 06:17:19 GMT 45.477116 15.197977 39,000 139 444 0
2020-09-19 06:17:16 GMT 45.482620 15.191345 39,000 139 444 0
2020-09-19 06:17:12 GMT 45.490814 15.181405 39,000 139 444 0
2020-09-19 06:17:09 GMT 45.493332 15.178332 39,000 139 444 0
2020-09-19 06:17:06 GMT 45.498505 15.172054 39,000 139 444 0
2020-09-19 06:17:02 GMT 45.504501 15.164795 39,000 139 444 0
2020-09-19 06:16:59 GMT 45.509262 15.158975 39,000 139 444 0
2020-09-19 06:16:55 GMT 45.515659 15.151285 39,000 139 444 0
2020-09-19 06:16:52 GMT 45.522457 15.143113 39,000 139 444 64
2020-09-19 06:16:49 GMT 45.525375 15.139553 39,000 139 444 0
2020-09-19 06:16:45 GMT 45.532650 15.130853 39,000 139 444 0
2020-09-19 06:16:42 GMT 45.536499 15.126147 39,000 139 444 0
2020-09-19 06:16:38 GMT 45.541729 15.119867 39,000 139 444 64
2020-09-19 06:16:34 GMT 45.550598 15.109216 39,000 139 444 0
2020-09-19 06:16:28 GMT 45.557602 15.100708 39,000 139 444 0
2020-09-19 06:16:23 GMT 45.565201 15.091463 39,000 139 444 0
2020-09-19 06:16:18 GMT 45.573349 15.081616 39,000 139 444 0
2020-09-19 06:16:14 GMT 45.580318 15.073105 39,000 139 444 -64
2020-09-19 06:16:11 GMT 45.584137 15.068436 39,000 139 444 -64
2020-09-19 06:16:07 GMT 45.589920 15.061452 39,000 139 444 -64
2020-09-19 06:16:03 GMT 45.596924 15.053011 39,000 139 444 -64
2020-09-19 06:15:59 GMT 45.602432 15.046257 39,000 139 444 -64
2020-09-19 06:15:56 GMT 45.607086 15.040695 39,000 139 444 -64
2020-09-19 06:15:53 GMT 45.612625 15.033986 39,000 139 444 -64
2020-09-19 06:15:50 GMT 45.617981 15.027488 39,000 139 444 -64
2020-09-19 06:15:47 GMT 45.621937 15.022705 39,000 139 444 0
2020-09-19 06:15:43 GMT 45.628738 15.014425 39,000 139 444 0
2020-09-19 06:15:40 GMT 45.633484 15.008698 39,000 139 444 0
2020-09-19 06:15:37 GMT 45.637718 15.003548 39,000 139 444 0
2020-09-19 06:15:34 GMT 45.643753 14.996204 39,000 139 444 0
2020-09-19 06:15:29 GMT 45.650482 14.988031 39,025 139 444 0
2020-09-19 06:15:25 GMT 45.657505 14.979446 39,025 139 443 0
2020-09-19 06:15:17 GMT 45.669048 14.965439 39,025 139 444 0
2020-09-19 06:15:13 GMT 45.674652 14.958623 39,025 139 444 0
2020-09-19 06:15:10 GMT 45.679893 14.952187 39,025 139 443 0
2020-09-19 06:15:06 GMT 45.685822 14.944957 39,025 139 443 0
2020-09-19 06:15:03 GMT 45.690582 14.939129 39,025 139 443 0
2020-09-19 06:14:59 GMT 45.702614 14.924377 39,025 139 443 0
2020-09-19 06:14:55 GMT 45.702614 14.924377 39,025 139 443 0
2020-09-19 06:14:52 GMT 45.708061 14.917717 39,025 139 443 0
2020-09-19 06:14:49 GMT 45.712875 14.911864 39,000 139 444 0
2020-09-19 06:14:45 GMT 45.719238 14.904093 39,000 139 444 0
2020-09-19 06:14:42 GMT 45.723541 14.898801 39,000 139 444 0
2020-09-19 06:14:36 GMT 45.732872 14.887436 39,000 139 444 0
2020-09-19 06:14:31 GMT 45.740570 14.878034 39,000 139 444 0
2020-09-19 06:14:27 GMT 45.747757 14.869258 39,025 139 443 0
2020-09-19 06:14:24 GMT 45.752289 14.863698 39,025 139 442 0
2020-09-19 06:14:21 GMT 45.755402 14.859947 39,025 139 443 0
2020-09-19 06:14:16 GMT 45.763130 14.850426 39,000 139 443 0
2020-09-19 06:14:13 GMT 45.768482 14.843903 39,000 139 444 0
2020-09-19 06:14:10 GMT 45.772816 14.838547 39,000 139 443 0
2020-09-19 06:14:07 GMT 45.779755 14.830002 39,000 139 444 0
2020-09-19 06:14:01 GMT 45.787674 14.820289 39,000 139 444 0
2020-09-19 06:13:58 GMT 45.791656 14.815398 39,000 139 444 0
2020-09-19 06:13:55 GMT 45.797058 14.808766 39,000 139 443 0
2020-09-19 06:13:52 GMT 45.803101 14.801398 39,000 139 443 0
2020-09-19 06:13:49 GMT 45.805634 14.798241 39,000 139 443 0
2020-09-19 06:13:45 GMT 45.812660 14.789658 39,000 139 443 0
2020-09-19 06:13:42 GMT 45.828049 14.770783 39,000 139 443 0
2020-09-19 06:13:36 GMT 45.828049 14.770783 39,000 139 443 0
2020-09-19 06:13:32 GMT 45.832672 14.765089 39,000 139 443 0
2020-09-19 06:13:28 GMT 45.839951 14.756112 39,000 139 443 0
2020-09-19 06:13:24 GMT 45.844620 14.750418 39,000 139 443 64
2020-09-19 06:13:21 GMT 45.848740 14.745327 39,000 139 443 64
2020-09-19 06:13:18 GMT 45.854187 14.738628 39,000 139 443 0
2020-09-19 06:13:15 GMT 45.858994 14.732733 39,000 139 443 0
2020-09-19 06:13:12 GMT 45.864197 14.726280 39,000 139 442 0
2020-09-19 06:13:08 GMT 45.869659 14.719603 39,000 139 443 0
2020-09-19 06:13:04 GMT 45.875198 14.712770 39,000 139 443 0
2020-09-19 06:13:01 GMT 45.880814 14.705887 39,000 139 443 0
2020-09-19 06:12:57 GMT 45.888962 14.695793 39,000 139 443 0
2020-09-19 06:12:54 GMT 45.891220 14.693008 39,000 139 443 0
2020-09-19 06:12:51 GMT 45.895477 14.687716 39,000 139 443 0
2020-09-19 06:12:47 GMT 45.903168 14.678270 39,000 139 443 0
2020-09-19 06:12:43 GMT 45.908607 14.671555 39,000 139 443 0
2020-09-19 06:12:40 GMT 45.912643 14.666614 39,000 139 443 0
2020-09-19 06:12:34 GMT 45.922531 14.654422 39,000 139 443 0
2020-09-19 06:12:30 GMT 45.929462 14.645874 39,000 139 443 0
2020-09-19 06:12:24 GMT 45.939423 14.633652 39,000 139 443 0
2020-09-19 06:12:20 GMT 45.944126 14.627815 39,000 139 443 0
2020-09-19 06:12:15 GMT 45.952606 14.617310 39,000 139 442 0
2020-09-19 06:12:10 GMT 45.959629 14.608658 39,000 139 443 0
2020-09-19 06:12:03 GMT 45.970734 14.594868 39,000 139 443 0
2020-09-19 06:12:00 GMT 45.975410 14.589088 39,000 139 442 0
2020-09-19 06:11:55 GMT 45.983742 14.578720 39,000 139 442 0
2020-09-19 06:11:52 GMT 45.987000 14.574669 39,000 139 443 0
2020-09-19 06:11:49 GMT 45.992588 14.567734 39,000 138 442 0
2020-09-19 06:11:44 GMT 46.000900 14.557421 39,000 139 442 0
2020-09-19 06:11:41 GMT 46.004829 14.552559 39,000 138 442 0
2020-09-19 06:11:38 GMT 46.008881 14.547546 39,000 138 442 0
2020-09-19 06:11:34 GMT 46.023266 14.529556 39,000 138 442 0
2020-09-19 06:11:29 GMT 46.023266 14.529556 39,000 138 442 0
2020-09-19 06:11:24 GMT 46.030930 14.519973 39,000 138 442 0
2020-09-19 06:11:21 GMT 46.035835 14.513832 39,000 139 442 0
2020-09-19 06:11:18 GMT 46.040348 14.508202 39,000 139 443 0
2020-09-19 06:11:15 GMT 46.045898 14.501283 39,000 139 442 0
2020-09-19 06:11:10 GMT 46.053848 14.491379 39,000 139 442 0
2020-09-19 06:11:07 GMT 46.056107 14.488622 39,000 139 442 0
2020-09-19 06:11:03 GMT 46.062836 14.480315 39,000 139 442 0
2020-09-19 06:11:00 GMT 46.068512 14.473281 39,000 139 442 0
2020-09-19 06:10:57 GMT 46.072563 14.468239 39,000 139 442 0
2020-09-19 06:10:54 GMT 46.077824 14.461716 39,000 139 442 0
2020-09-19 06:10:51 GMT 46.081512 14.457137 39,000 139 442 0
2020-09-19 06:10:48 GMT 46.085972 14.451553 39,000 139 442 0
2020-09-19 06:10:42 GMT 46.097935 14.436790 39,000 139 442 0
2020-09-19 06:10:37 GMT 46.103485 14.429939 39,000 139 442 0
2020-09-19 06:10:34 GMT 46.109711 14.422165 39,000 139 442 0
2020-09-19 06:10:30 GMT 46.114506 14.416260 39,000 139 442 0
2020-09-19 06:10:27 GMT 46.118774 14.410981 39,000 139 442 0
2020-09-19 06:10:23 GMT 46.124954 14.403277 39,000 139 442 0
2020-09-19 06:10:20 GMT 46.129578 14.397516 39,000 139 442 0
2020-09-19 06:10:17 GMT 46.134014 14.392021 39,000 139 442 -64
2020-09-19 06:10:10 GMT 46.147327 14.375473 39,000 139 443 -64
2020-09-19 06:10:07 GMT 46.149445 14.372864 39,000 139 443 -64
2020-09-19 06:10:03 GMT 46.157318 14.363016 39,000 138 442 -64
2020-09-19 06:09:59 GMT 46.162598 14.356384 39,000 138 442 -64
2020-09-19 06:09:56 GMT 46.166225 14.351852 39,025 138 442 -64
2020-09-19 06:09:53 GMT 46.173752 14.342383 39,025 138 442 -64
2020-09-19 06:09:50 GMT 46.176701 14.338669 39,025 138 442 -64
2020-09-19 06:09:47 GMT 46.181351 14.332804 39,025 138 442 -64
2020-09-19 06:09:40 GMT 46.192383 14.318937 39,025 138 442 0
2020-09-19 06:09:37 GMT 46.197788 14.312096 39,025 138 442 -64
2020-09-19 06:09:29 GMT 46.207901 14.299510 39,025 138 442 0
2020-09-19 06:09:26 GMT 46.213120 14.292945 39,025 138 442 64
2020-09-19 06:09:22 GMT 46.219948 14.284355 39,025 138 442 64
2020-09-19 06:09:19 GMT 46.229370 14.272580 39,025 138 442 64
2020-09-19 06:09:16 GMT 46.229370 14.272580 39,025 138 442 64
2020-09-19 06:09:12 GMT 46.236427 14.263756 39,025 138 442 64
2020-09-19 06:09:08 GMT 46.240990 14.257988 39,000 139 443 64
2020-09-19 06:09:05 GMT 46.245926 14.251808 39,000 139 443 64
2020-09-19 06:09:02 GMT 46.252254 14.243843 39,000 139 443 0
2020-09-19 06:08:59 GMT 46.256210 14.238899 39,000 139 443 0
2020-09-19 06:08:55 GMT 46.261230 14.232654 39,000 139 443 0
2020-09-19 06:08:51 GMT 46.272949 14.217983 39,000 139 443 0
2020-09-19 06:08:48 GMT 46.272949 14.217983 39,000 138 444 64
2020-09-19 06:08:45 GMT 46.276974 14.212944 39,000 138 444 64
2020-09-19 06:08:38 GMT 46.287540 14.199623 39,000 138 443 64
2020-09-19 06:08:35 GMT 46.292664 14.193169 39,000 138 444 64
2020-09-19 06:08:31 GMT 46.299274 14.184792 39,000 138 444 64
2020-09-19 06:08:28 GMT 46.303322 14.179710 38,975 138 445 64
2020-09-19 06:08:25 GMT 46.308838 14.172765 39,000 138 445 64
2020-09-19 06:08:18 GMT 46.318588 14.160506 38,975 138 444 0
2020-09-19 06:08:15 GMT 46.322525 14.155549 39,000 138 444 0
2020-09-19 06:08:11 GMT 46.330231 14.145859 39,000 138 444 0
2020-09-19 06:08:08 GMT 46.335342 14.139337 39,000 138 444 0
2020-09-19 06:08:05 GMT 46.338593 14.135318 39,000 138 444 0
2020-09-19 06:08:02 GMT 46.348663 14.122590 39,000 138 444 0
2020-09-19 06:07:58 GMT 46.348663 14.122590 39,000 138 445 0
2020-09-19 06:07:55 GMT 46.353275 14.116745 39,000 138 444 0
2020-09-19 06:07:52 GMT 46.360107 14.108120 39,000 138 444 0
2020-09-19 06:07:48 GMT 46.365234 14.101622 39,000 138 444 0
2020-09-19 06:07:45 GMT 46.369705 14.095940 39,000 138 444 0
2020-09-19 06:07:42 GMT 46.373520 14.091105 39,000 138 444 0
2020-09-19 06:07:39 GMT 46.378830 14.084404 39,000 138 444 0
2020-09-19 06:07:36 GMT 46.382904 14.079247 39,000 138 444 0
2020-09-19 06:07:33 GMT 46.388535 14.072147 39,000 138 443 0
2020-09-19 06:07:28 GMT 46.395355 14.063505 39,000 138 443 0
2020-09-19 06:07:25 GMT 46.400665 14.056739 39,000 138 444 0
2020-09-19 06:07:22 GMT 46.405411 14.050758 39,000 138 444 0
2020-09-19 06:07:19 GMT 46.409912 14.045016 39,000 138 444 0
2020-09-19 06:07:15 GMT 46.417465 14.035436 39,000 138 444 0
2020-09-19 06:07:11 GMT 46.422134 14.029608 39,000 138 444 0
2020-09-19 06:07:08 GMT 46.425980 14.024718 39,000 138 443 0
2020-09-19 06:07:05 GMT 46.432411 14.016495 39,000 138 444 0
2020-09-19 06:06:59 GMT 46.441864 14.004554 39,000 138 444 0
2020-09-19 06:06:55 GMT 46.446533 13.998659 39,000 138 444 0
2020-09-19 06:06:52 GMT 46.452026 13.991692 39,000 138 444 0
2020-09-19 06:06:47 GMT 46.458622 13.983261 39,000 138 444 0
2020-09-19 06:06:44 GMT 46.464252 13.976120 39,000 138 444 0
2020-09-19 06:06:41 GMT 46.469559 13.969451 39,000 138 444 0
2020-09-19 06:06:38 GMT 46.474319 13.963355 39,000 138 444 0
2020-09-19 06:06:34 GMT 46.481003 13.954914 39,000 138 444 0
2020-09-19 06:06:31 GMT 46.484070 13.950962 39,000 138 444 0
2020-09-19 06:06:27 GMT 46.489151 13.944531 39,000 138 444 0
2020-09-19 06:06:24 GMT 46.495010 13.937028 39,000 138 444 0
2020-09-19 06:06:19 GMT 46.502193 13.927917 39,000 138 444 0
2020-09-19 06:06:16 GMT 46.507645 13.920951 39,000 138 444 0
2020-09-19 06:06:13 GMT 46.511505 13.916039 39,000 138 444 0
2020-09-19 06:06:10 GMT 46.520489 13.904572 39,000 138 444 0
2020-09-19 06:06:07 GMT 46.520489 13.904572 39,000 138 444 0
2020-09-19 06:06:03 GMT 46.528126 13.894821 39,000 138 444 0
2020-09-19 06:06:00 GMT 46.531860 13.890135 39,000 138 444 0
2020-09-19 06:05:57 GMT 46.536530 13.884106 39,000 138 444 0
2020-09-19 06:05:54 GMT 46.540512 13.879082 39,000 138 444 0
2020-09-19 06:05:51 GMT 46.545090 13.873254 39,000 138 444 0
2020-09-19 06:05:48 GMT 46.549713 13.867359 39,000 138 445 0
2020-09-19 06:05:45 GMT 46.555801 13.859588 39,000 138 444 0
2020-09-19 06:05:42 GMT 46.559601 13.854765 39,000 138 444 0
2020-09-19 06:05:37 GMT 46.568481 13.843510 39,000 138 444 0
2020-09-19 06:05:32 GMT 46.576164 13.833710 39,000 138 445 0
2020-09-19 06:05:29 GMT 46.579376 13.829643 39,000 138 445 0
2020-09-19 06:05:26 GMT 46.584126 13.823616 39,000 138 445 0
2020-09-19 06:05:22 GMT 46.589493 13.816781 39,000 138 445 0
2020-09-19 06:05:18 GMT 46.597904 13.806038 39,000 138 445 0
2020-09-19 06:05:15 GMT 46.601955 13.800957 39,000 138 445 0
2020-09-19 06:05:12 GMT 46.606567 13.795077 39,000 138 445 0
2020-09-19 06:05:08 GMT 46.613270 13.786537 39,000 138 444 0
2020-09-19 06:05:04 GMT 46.625931 13.770401 39,000 138 444 0
2020-09-19 06:05:00 GMT 46.625931 13.770401 39,000 138 444 0
2020-09-19 06:04:56 GMT 46.631191 13.763603 39,000 138 444 0
2020-09-19 06:04:53 GMT 46.635056 13.758659 39,000 138 444 0
2020-09-19 06:04:50 GMT 46.639153 13.753441 39,000 138 444 0
2020-09-19 06:04:47 GMT 46.644470 13.746576 39,000 138 444 0
2020-09-19 06:04:44 GMT 46.648453 13.741552 39,000 138 444 0
2020-09-19 06:04:41 GMT 46.653023 13.735657 39,000 138 444 0
2020-09-19 06:04:37 GMT 46.659866 13.726868 39,000 138 444 0
2020-09-19 06:04:33 GMT 46.666801 13.718079 39,000 138 444 0
2020-09-19 06:04:29 GMT 46.671616 13.711808 39,000 138 444 0
2020-09-19 06:04:26 GMT 46.677567 13.704239 39,000 138 445 0
2020-09-19 06:04:23 GMT 46.680443 13.700500 39,000 138 444 0
2020-09-19 06:04:20 GMT 46.687241 13.691780 39,000 138 444 0
2020-09-19 06:04:17 GMT 46.690868 13.687180 39,000 138 444 0
2020-09-19 06:04:13 GMT 46.695526 13.681137 39,000 138 444 0
2020-09-19 06:04:10 GMT 46.701019 13.674065 39,000 138 445 0
2020-09-19 06:04:07 GMT 46.707165 13.666168 39,000 138 445 0
2020-09-19 06:04:03 GMT 46.713043 13.658551 39,000 138 446 0
2020-09-19 06:03:59 GMT 46.718628 13.651384 39,000 138 445 0
2020-09-19 06:03:56 GMT 46.722290 13.646627 39,000 138 445 0
2020-09-19 06:03:52 GMT 46.729752 13.636981 39,000 138 445 0
2020-09-19 06:03:49 GMT 46.734604 13.630751 39,000 138 445 0
2020-09-19 06:03:45 GMT 46.739750 13.624077 39,000 138 445 0
2020-09-19 06:03:41 GMT 46.746174 13.615768 39,000 138 445 0
2020-09-19 06:03:38 GMT 46.757347 13.601418 39,000 138 446 0
2020-09-19 06:03:34 GMT 46.757347 13.601418 39,000 138 445 0
2020-09-19 06:03:30 GMT 46.762512 13.594688 39,000 138 444 0
2020-09-19 06:03:27 GMT 46.767029 13.588921 39,000 138 445 0
2020-09-19 06:03:23 GMT 46.774059 13.579926 39,000 138 446 0
2020-09-19 06:03:20 GMT 46.777271 13.575737 39,000 138 446 0
2020-09-19 06:03:17 GMT 46.782906 13.568527 39,000 138 446 0
2020-09-19 06:03:14 GMT 46.787338 13.562756 39,000 138 446 0
2020-09-19 06:03:10 GMT 46.795753 13.551842 39,000 138 446 0
2020-09-19 06:03:05 GMT 46.802032 13.543798 39,000 138 446 64
2020-09-19 06:03:01 GMT 46.812557 13.530212 38,975 138 446 0
2020-09-19 06:02:55 GMT 46.817120 13.524307 39,000 138 446 0
2020-09-19 06:02:52 GMT 46.822006 13.517990 38,975 138 446 0
2020-09-19 06:02:48 GMT 46.828247 13.509956 38,975 138 446 0
2020-09-19 06:02:45 GMT 46.832809 13.504051 39,000 138 446 0
2020-09-19 06:02:41 GMT 46.839279 13.495674 39,000 138 446 0
2020-09-19 06:02:38 GMT 46.843964 13.489603 39,000 138 446 0
2020-09-19 06:02:35 GMT 46.847984 13.484413 39,000 138 446 0
2020-09-19 06:02:32 GMT 46.852127 13.479057 39,000 138 446 0
2020-09-19 06:02:29 GMT 46.856224 13.473770 39,000 138 446 0
2020-09-19 06:02:26 GMT 46.869259 13.456914 39,000 138 446 -64
2020-09-19 06:02:21 GMT 46.869259 13.456914 39,000 138 446 0
2020-09-19 06:02:18 GMT 46.874565 13.450012 39,000 138 446 0
2020-09-19 06:02:15 GMT 46.877426 13.446304 39,000 138 446 0
2020-09-19 06:02:11 GMT 46.884995 13.436491 39,000 138 446 0
2020-09-19 06:02:08 GMT 46.889229 13.430997 39,000 138 446 0
2020-09-19 06:02:04 GMT 46.895561 13.422758 39,000 138 446 -64
2020-09-19 06:02:01 GMT 46.899536 13.417671 39,000 138 446 -64
2020-09-19 06:01:58 GMT 46.905106 13.410363 39,000 138 446 -64
2020-09-19 06:01:54 GMT 46.910084 13.403954 39,000 138 446 0
2020-09-19 06:01:51 GMT 46.917160 13.394806 39,000 138 446 -64
2020-09-19 06:01:47 GMT 46.921005 13.389862 39,000 138 446 -64
2020-09-19 06:01:44 GMT 46.925354 13.384165 39,000 138 446 0
2020-09-19 06:01:41 GMT 46.930801 13.377122 39,000 138 446 0
2020-09-19 06:01:38 GMT 46.935596 13.370925 39,000 138 446 0
2020-09-19 06:01:34 GMT 46.940716 13.364234 39,000 138 446 0
2020-09-19 06:01:30 GMT 46.947701 13.355220 39,000 138 446 -64
2020-09-19 06:01:26 GMT 46.955750 13.344818 39,000 138 446 0
2020-09-19 06:01:23 GMT 46.958817 13.340767 39,000 138 446 0
2020-09-19 06:01:20 GMT 46.963257 13.334999 39,025 138 446 0
2020-09-19 06:01:16 GMT 46.969391 13.327050 39,000 138 446 -64
2020-09-19 06:01:13 GMT 46.975983 13.318451 39,025 138 446 0
2020-09-19 06:01:09 GMT 46.978981 13.314514 39,025 138 446 0
2020-09-19 06:01:06 GMT 46.985046 13.306641 39,025 138 446 0
2020-09-19 06:01:03 GMT 46.988754 13.301765 39,025 138 446 0
2020-09-19 06:01:00 GMT 46.994297 13.294443 39,025 138 446 0
2020-09-19 06:00:57 GMT 47.004864 13.280710 39,025 138 445 0
2020-09-19 06:00:54 GMT 47.004864 13.280710 39,000 138 446 0
2020-09-19 06:00:50 GMT 47.010223 13.273682 39,000 138 446 0
2020-09-19 06:00:47 GMT 47.015663 13.266625 39,000 138 445 0
2020-09-19 06:00:44 GMT 47.018829 13.262421 39,000 138 446 0
2020-09-19 06:00:41 GMT 47.025055 13.254250 39,000 138 446 0
2020-09-19 06:00:37 GMT 47.030365 13.247314 39,000 138 446 0
2020-09-19 06:00:34 GMT 47.034531 13.241890 39,000 138 446 0
2020-09-19 06:00:31 GMT 47.038338 13.236906 39,025 138 447 0
2020-09-19 06:00:28 GMT 47.043083 13.230638 39,025 138 446 0
2020-09-19 06:00:24 GMT 47.049637 13.222115 39,025 138 446 0
2020-09-19 06:00:21 GMT 47.053604 13.216905 39,025 138 446 0
2020-09-19 06:00:18 GMT 47.058540 13.210426 39,000 138 447 0
2020-09-19 06:00:15 GMT 47.063801 13.203595 39,025 138 446 0
2020-09-19 06:00:12 GMT 47.071899 13.192960 39,025 138 446 0
2020-09-19 06:00:09 GMT 47.071899 13.192960 39,025 138 446 0
2020-09-19 06:00:06 GMT 47.077625 13.185425 39,025 138 446 0
2020-09-19 06:00:02 GMT 47.082962 13.178444 39,025 138 447 0
2020-09-19 05:59:59 GMT 47.087585 13.172333 39,025 138 446 0
2020-09-19 05:59:56 GMT 47.093174 13.165072 39,025 138 447 0
2020-09-19 05:59:51 GMT 47.099365 13.156903 39,025 138 447 0
2020-09-19 05:59:48 GMT 47.104523 13.150223 39,025 138 447 0
2020-09-19 05:59:45 GMT 47.109051 13.144296 39,025 138 447 0
2020-09-19 05:59:41 GMT 47.114548 13.137108 39,025 138 448 0
2020-09-19 05:59:38 GMT 47.120453 13.129296 39,025 138 447 0
2020-09-19 05:59:35 GMT 47.125122 13.123238 39,025 138 447 0
2020-09-19 05:59:31 GMT 47.132977 13.112957 39,025 138 447 0
2020-09-19 05:59:27 GMT 47.137539 13.107042 39,025 138 448 0
2020-09-19 05:59:24 GMT 47.142334 13.100716 39,025 138 448 0
2020-09-19 05:59:21 GMT 47.146709 13.094999 39,025 138 448 0
2020-09-19 05:59:18 GMT 47.151215 13.089043 39,025 138 448 0
2020-09-19 05:59:15 GMT 47.156982 13.081490 39,025 138 448 0
2020-09-19 05:59:12 GMT 47.160023 13.077463 39,025 138 448 0
2020-09-19 05:59:09 GMT 47.169521 13.064998 39,025 138 447 0
2020-09-19 05:59:06 GMT 47.169521 13.064998 39,000 138 447 64
2020-09-19 05:59:03 GMT 47.174175 13.058800 39,000 138 447 64
2020-09-19 05:59:00 GMT 47.180275 13.050842 39,000 138 447 64
2020-09-19 05:58:56 GMT 47.184742 13.044927 39,000 138 447 0
2020-09-19 05:58:53 GMT 47.188747 13.039645 39,000 138 447 0
2020-09-19 05:58:50 GMT 47.194099 13.032602 39,000 137 448 0
2020-09-19 05:58:47 GMT 47.198685 13.026558 39,000 137 448 0
2020-09-19 05:58:44 GMT 47.203922 13.019714 39,000 137 448 0
2020-09-19 05:58:41 GMT 47.209305 13.012482 39,000 137 447 0
2020-09-19 05:58:37 GMT 47.215607 13.004150 39,000 137 448 0
2020-09-19 05:58:32 GMT 47.222683 12.994784 39,000 137 448 0
2020-09-19 05:58:29 GMT 47.227936 12.987831 39,000 137 448 0
2020-09-19 05:58:26 GMT 47.235947 12.977257 39,000 137 448 0
2020-09-19 05:58:23 GMT 47.235947 12.977257 39,000 138 447 0
2020-09-19 05:58:20 GMT 47.241489 12.969924 39,000 138 447 0
2020-09-19 05:58:17 GMT 47.244965 12.965309 39,000 138 447 0
2020-09-19 05:58:14 GMT 47.249683 12.959078 39,000 138 447 0
2020-09-19 05:58:11 GMT 47.255966 12.950839 39,000 138 446 0
2020-09-19 05:58:07 GMT 47.260574 12.944847 39,000 138 446 0
2020-09-19 05:58:03 GMT 47.266350 12.937246 39,000 138 447 0
2020-09-19 05:58:00 GMT 47.270958 12.931119 39,000 137 446 64
2020-09-19 05:57:57 GMT 47.279068 12.920403 39,000 137 447 64
2020-09-19 05:57:51 GMT 47.285156 12.912300 39,000 137 446 64
2020-09-19 05:57:48 GMT 47.290508 12.905203 39,000 137 446 0
2020-09-19 05:57:45 GMT 47.292976 12.901963 39,000 137 446 0
2020-09-19 05:57:42 GMT 47.297585 12.895836 39,000 137 446 0
2020-09-19 05:57:39 GMT 47.303421 12.888130 39,000 137 446 0
2020-09-19 05:57:36 GMT 47.308044 12.882019 39,000 137 446 0
2020-09-19 05:57:33 GMT 47.313507 12.874779 39,000 137 446 0
2020-09-19 05:57:30 GMT 47.323242 12.861900 39,000 137 446 0
2020-09-19 05:57:27 GMT 47.323242 12.861900 39,000 137 446 0
2020-09-19 05:57:24 GMT 47.325794 12.858511 39,000 137 446 0
2020-09-19 05:57:21 GMT 47.332455 12.849708 39,000 137 446 64
2020-09-19 05:57:17 GMT 47.338737 12.841398 39,000 137 446 0
2020-09-19 05:57:14 GMT 47.347534 12.829707 38,975 137 446 0
2020-09-19 05:57:10 GMT 47.347534 12.829707 38,975 137 446 0
2020-09-19 05:57:07 GMT 47.357174 12.816960 38,975 137 446 0
2020-09-19 05:57:01 GMT 47.361649 12.811020 38,975 138 446 0
2020-09-19 05:56:58 GMT 47.367188 12.803673 39,000 138 446 0
2020-09-19 05:56:55 GMT 47.371929 12.797382 39,000 138 445 0
2020-09-19 05:56:52 GMT 47.375702 12.792382 39,000 138 445 0
2020-09-19 05:56:49 GMT 47.383987 12.781396 39,000 138 445 0
2020-09-19 05:56:46 GMT 47.383987 12.781396 39,000 137 446 0
2020-09-19 05:56:43 GMT 47.389526 12.774071 38,975 137 446 0
2020-09-19 05:56:40 GMT 47.393967 12.768105 38,975 137 446 0
2020-09-19 05:56:37 GMT 47.398590 12.761993 38,975 137 446 0
2020-09-19 05:56:34 GMT 47.403809 12.755058 39,000 137 445 0
2020-09-19 05:56:31 GMT 47.408379 12.748930 38,975 137 445 0
2020-09-19 05:56:28 GMT 47.413284 12.742424 39,000 137 445 0
2020-09-19 05:56:25 GMT 47.420624 12.732591 39,000 137 445 0
2020-09-19 05:56:22 GMT 47.420624 12.732591 39,000 137 445 0
2020-09-19 05:56:19 GMT 47.424671 12.727168 39,000 137 445 0
2020-09-19 05:56:16 GMT 47.430176 12.719833 39,000 137 445 0
2020-09-19 05:56:13 GMT 47.434731 12.713787 39,000 137 445 0
2020-09-19 05:56:10 GMT 47.439972 12.706787 39,000 137 445 0
2020-09-19 05:56:07 GMT 47.442993 12.702736 39,000 137 445 0
2020-09-19 05:56:04 GMT 47.448578 12.695320 39,000 137 445 0
2020-09-19 05:56:01 GMT 47.454559 12.687308 39,000 137 445 0
2020-09-19 05:55:58 GMT 47.457596 12.683235 39,000 137 445 0
2020-09-19 05:55:54 GMT 47.463638 12.675265 39,000 137 445 0
2020-09-19 05:55:51 GMT 47.469818 12.666962 39,000 137 445 0
2020-09-19 05:55:48 GMT 47.473206 12.662430 39,000 137 445 0
2020-09-19 05:55:45 GMT 47.479065 12.654602 39,000 137 445 0
2020-09-19 05:55:42 GMT 47.482819 12.649630 39,000 137 445 0
2020-09-19 05:55:39 GMT 47.486774 12.644278 39,000 137 445 0
2020-09-19 05:55:36 GMT 47.491470 12.637985 39,000 137 445 0
2020-09-19 05:55:33 GMT 47.497238 12.630157 39,000 137 445 0
2020-09-19 05:55:30 GMT 47.500229 12.626108 39,000 137 445 0
2020-09-19 05:55:27 GMT 47.504139 12.620826 39,000 137 445 0
2020-09-19 05:55:24 GMT 47.510750 12.611882 39,000 137 445 0
2020-09-19 05:55:21 GMT 47.514404 12.606949 39,000 137 445 0
2020-09-19 05:55:18 GMT 47.518387 12.601593 39,000 137 445 0
2020-09-19 05:55:15 GMT 47.528950 12.587445 39,000 137 446 0
2020-09-19 05:55:12 GMT 47.528950 12.587445 39,000 137 446 0
2020-09-19 05:55:08 GMT 47.535049 12.579414 39,000 138 445 0
2020-09-19 05:55:05 GMT 47.538071 12.575294 39,000 138 445 0
2020-09-19 05:55:02 GMT 47.542511 12.569458 39,000 138 445 0
2020-09-19 05:54:59 GMT 47.553635 12.554695 39,000 138 445 0
2020-09-19 05:54:55 GMT 47.553635 12.554695 39,000 137 445 0
2020-09-19 05:54:52 GMT 47.559036 12.547417 39,000 137 445 0
2020-09-19 05:54:49 GMT 47.563065 12.541992 39,000 137 445 0
2020-09-19 05:54:46 GMT 47.567825 12.535675 39,000 137 445 -64
2020-09-19 05:54:43 GMT 47.572197 12.529837 39,025 137 445 0
2020-09-19 05:54:40 GMT 47.576660 12.523796 39,025 137 445 0
2020-09-19 05:54:37 GMT 47.581375 12.517479 39,025 137 445 0
2020-09-19 05:54:34 GMT 47.586723 12.510188 39,025 137 445 0
2020-09-19 05:54:31 GMT 47.591099 12.504272 39,025 137 445 0
2020-09-19 05:54:28 GMT 47.594776 12.499343 39,025 137 445 0
2020-09-19 05:54:24 GMT 47.600826 12.491173 39,025 137 445 0
2020-09-19 05:54:21 GMT 47.604645 12.485962 39,025 137 446 0
2020-09-19 05:54:18 GMT 47.610168 12.478546 39,025 137 446 0
2020-09-19 05:54:14 GMT 47.616283 12.470257 39,025 137 446 0
2020-09-19 05:54:11 GMT 47.620331 12.464834 39,025 137 445 0
2020-09-19 05:54:08 GMT 47.625595 12.457741 39,025 137 445 0
2020-09-19 05:54:05 GMT 47.633331 12.447372 39,025 137 446 0
2020-09-19 05:54:02 GMT 47.633331 12.447372 39,025 137 446 64
2020-09-19 05:53:59 GMT 47.640209 12.438073 39,000 137 447 64
2020-09-19 05:53:56 GMT 47.643375 12.433847 39,000 137 447 64
2020-09-19 05:53:53 GMT 47.650032 12.424903 39,000 137 447 64
2020-09-19 05:53:49 GMT 47.654572 12.418808 39,000 137 447 64
2020-09-19 05:53:46 GMT 47.659065 12.412790 39,000 137 447 64
2020-09-19 05:53:43 GMT 47.664642 12.405212 39,000 137 447 64
2020-09-19 05:53:40 GMT 47.668003 12.400747 39,000 137 447 0
2020-09-19 05:53:37 GMT 47.672333 12.394902 39,000 137 447 0
2020-09-19 05:53:33 GMT 47.679245 12.385574 39,000 137 447 0
2020-09-19 05:53:30 GMT 47.683914 12.379257 39,000 137 447 0
2020-09-19 05:53:27 GMT 47.687740 12.374056 39,000 137 447 0
2020-09-19 05:53:23 GMT 47.693573 12.366142 39,000 137 447 0
2020-09-19 05:53:20 GMT 47.699020 12.358727 39,000 137 447 0
2020-09-19 05:53:17 GMT 47.702682 12.353783 39,000 137 447 0
2020-09-19 05:53:14 GMT 47.708633 12.345680 39,000 137 446 0
2020-09-19 05:53:11 GMT 47.713299 12.339337 39,000 137 447 0
2020-09-19 05:53:08 GMT 47.717857 12.333139 39,000 137 445 0
2020-09-19 05:53:05 GMT 47.720810 12.329201 39,000 137 446 0
2020-09-19 05:53:02 GMT 47.725525 12.322815 39,000 137 446 0
2020-09-19 05:52:59 GMT 47.731453 12.314829 39,000 137 448 0
2020-09-19 05:52:55 GMT 47.737366 12.306800 39,000 137 447 0
2020-09-19 05:52:52 GMT 47.742485 12.299828 39,000 137 447 0
2020-09-19 05:52:49 GMT 47.744766 12.296800 39,025 137 447 0
2020-09-19 05:52:46 GMT 47.749832 12.289856 39,000 137 447 0
2020-09-19 05:52:43 GMT 47.755463 12.282234 39,000 137 447 0
2020-09-19 05:52:40 GMT 47.758732 12.277856 39,025 137 447 -64
2020-09-19 05:52:37 GMT 47.764618 12.269806 39,025 137 447 -64
2020-09-19 05:52:34 GMT 47.769905 12.262573 39,025 137 447 0
2020-09-19 05:52:30 GMT 47.774559 12.256305 39,025 137 447 0
2020-09-19 05:52:27 GMT 47.779221 12.249893 39,025 137 447 0
2020-09-19 05:52:24 GMT 47.783661 12.243919 39,025 137 447 0
2020-09-19 05:52:21 GMT 47.788239 12.237740 39,025 137 447 0
2020-09-19 05:52:18 GMT 47.792667 12.231657 39,025 137 447 0
2020-09-19 05:52:15 GMT 47.797256 12.225380 39,025 137 447 0
2020-09-19 05:52:12 GMT 47.801189 12.220036 39,025 137 447 0
2020-09-19 05:52:09 GMT 47.806549 12.212746 39,025 137 447 0
2020-09-19 05:52:06 GMT 47.810219 12.207712 39,025 137 447 0
2020-09-19 05:52:03 GMT 47.816620 12.198944 39,025 137 447 0
2020-09-19 05:52:00 GMT 47.820465 12.193726 39,025 137 448 0
2020-09-19 05:51:57 GMT 47.824326 12.188486 39,025 137 448 0
2020-09-19 05:51:54 GMT 47.828796 12.182396 39,025 137 447 0
2020-09-19 05:51:51 GMT 47.835617 12.173126 39,025 137 448 0
2020-09-19 05:51:48 GMT 47.839592 12.167711 39,025 137 447 0
2020-09-19 05:51:45 GMT 47.843353 12.162621 39,025 137 447 0
2020-09-19 05:51:42 GMT 47.848572 12.155548 39,025 137 448 0
2020-09-19 05:51:38 GMT 47.854584 12.147358 39,025 137 448 0
2020-09-19 05:51:35 GMT 47.859379 12.140808 39,025 137 448 -64
2020-09-19 05:51:32 GMT 47.862671 12.136253 39,025 137 448 0
2020-09-19 05:51:29 GMT 47.868530 12.128288 39,025 137 448 0
2020-09-19 05:51:26 GMT 47.873901 12.120948 39,025 137 447 0
2020-09-19 05:51:23 GMT 47.877823 12.115585 39,025 137 447 0
2020-09-19 05:51:20 GMT 47.880936 12.111259 39,025 137 447 0
2020-09-19 05:51:17 GMT 47.886005 12.104328 39,025 137 447 0
2020-09-19 05:51:14 GMT 47.890457 12.098282 39,025 137 447 64
2020-09-19 05:51:11 GMT 47.895874 12.090806 39,025 137 447 64
2020-09-19 05:51:08 GMT 47.904022 12.079679 39,025 137 448 64
2020-09-19 05:51:05 GMT 47.904022 12.079679 39,025 137 448 0
2020-09-19 05:51:02 GMT 47.908676 12.073341 39,025 137 447 0
2020-09-19 05:50:59 GMT 47.913380 12.066932 39,025 137 447 0
2020-09-19 05:50:56 GMT 47.918453 12.059960 39,025 137 447 0
2020-09-19 05:50:53 GMT 47.923187 12.053444 39,025 137 447 0
2020-09-19 05:50:50 GMT 47.928268 12.046509 39,025 137 447 0
2020-09-19 05:50:47 GMT 47.931999 12.041368 39,025 137 447 0
2020-09-19 05:50:44 GMT 47.937057 12.034424 39,025 137 447 0
2020-09-19 05:50:41 GMT 47.940720 12.029411 39,000 137 447 0
2020-09-19 05:50:38 GMT 47.945034 12.023480 39,025 137 447 0
2020-09-19 05:50:35 GMT 47.950760 12.015592 39,025 137 447 0
2020-09-19 05:50:32 GMT 47.953835 12.011367 39,000 137 447 0
2020-09-19 05:50:29 GMT 47.960678 12.001945 39,000 137 447 0
2020-09-19 05:50:25 GMT 47.965073 11.995903 39,000 137 447 0
2020-09-19 05:50:22 GMT 47.969009 11.990479 39,000 137 447 0
2020-09-19 05:50:19 GMT 47.974319 11.983200 39,025 137 447 0
2020-09-19 05:50:16 GMT 47.978760 11.977089 39,025 137 447 0
2020-09-19 05:50:13 GMT 47.983299 11.970872 39,025 137 447 0
2020-09-19 05:50:10 GMT 47.987915 11.964523 39,000 137 447 0
2020-09-19 05:50:07 GMT 47.992424 11.958266 39,000 137 446 64
2020-09-19 05:50:04 GMT 47.998756 11.949674 39,000 137 446 64
2020-09-19 05:50:00 GMT 48.003223 11.943547 39,000 137 447 64
2020-09-19 05:49:57 GMT 48.007004 11.938431 39,000 137 447 64
2020-09-19 05:49:54 GMT 48.012634 11.930740 39,000 137 446 64
2020-09-19 05:49:51 GMT 48.017944 11.923462 39,000 137 446 64
2020-09-19 05:49:45 GMT 48.025360 11.913368 39,000 137 446 64
2020-09-19 05:49:42 GMT 48.029343 11.907875 38,975 137 446 64
2020-09-19 05:49:39 GMT 48.034882 11.900306 38,975 137 447 64
2020-09-19 05:49:36 GMT 48.038509 11.895306 38,975 137 446 64
2020-09-19 05:49:33 GMT 48.044331 11.887348 38,975 137 446 64
2020-09-19 05:49:30 GMT 48.048798 11.881096 38,975 137 446 0
2020-09-19 05:49:27 GMT 48.053604 11.874504 38,975 137 446 0
2020-09-19 05:49:24 GMT 48.056854 11.869953 38,975 137 446 64
2020-09-19 05:49:21 GMT 48.062672 11.861854 38,975 137 446 64
2020-09-19 05:49:18 GMT 48.066441 11.856643 38,975 136 445 0
2020-09-19 05:49:15 GMT 48.071144 11.850163 38,975 136 445 0
2020-09-19 05:49:12 GMT 48.075798 11.843614 38,975 136 445 0
2020-09-19 05:49:09 GMT 48.079338 11.838755 38,975 136 445 0
2020-09-19 05:49:06 GMT 48.084366 11.831712 38,975 136 445 0
2020-09-19 05:49:03 GMT 48.089020 11.825303 38,975 137 445 0
2020-09-19 05:49:00 GMT 48.092838 11.820021 38,975 137 445 0
2020-09-19 05:48:57 GMT 48.099289 11.811058 38,975 137 445 0
2020-09-19 05:48:54 GMT 48.102448 11.806732 38,975 137 445 0
2020-09-19 05:48:51 GMT 48.107117 11.800209 38,975 137 445 0
2020-09-19 05:48:48 GMT 48.112202 11.793189 38,975 137 445 0
2020-09-19 05:48:45 GMT 48.116913 11.786682 38,975 137 445 0
2020-09-19 05:48:42 GMT 48.121841 11.779879 38,975 137 444 0
2020-09-19 05:48:39 GMT 48.125565 11.774666 38,975 137 444 0
2020-09-19 05:48:36 GMT 48.131241 11.766907 38,975 137 444 0
2020-09-19 05:48:33 GMT 48.134224 11.762766 38,975 137 444 0
2020-09-19 05:48:30 GMT 48.138554 11.756709 38,975 137 444 0
2020-09-19 05:48:27 GMT 48.143440 11.749948 38,975 137 444 0
2020-09-19 05:48:24 GMT 48.148048 11.743540 38,975 137 445 0
2020-09-19 05:48:21 GMT 48.154007 11.735300 38,975 137 444 0
2020-09-19 05:48:18 GMT 48.158337 11.729243 38,975 137 444 0
2020-09-19 05:48:15 GMT 48.161453 11.724947 38,975 137 444 0
2020-09-19 05:48:12 GMT 48.166157 11.718365 38,975 137 444 0
2020-09-19 05:48:09 GMT 48.170609 11.712200 38,975 137 444 -64
2020-09-19 05:48:06 GMT 48.176445 11.704053 38,975 137 444 -64
2020-09-19 05:48:03 GMT 48.184685 11.692633 38,975 137 444 -64
2020-09-19 05:48:00 GMT 48.184685 11.692633 38,975 137 444 -64
2020-09-19 05:47:57 GMT 48.189377 11.686073 38,975 137 444 -64
2020-09-19 05:47:53 GMT 48.194599 11.678828 38,975 137 444 -64
2020-09-19 05:47:50 GMT 48.199024 11.672612 38,975 137 444 -64
2020-09-19 05:47:47 GMT 48.204750 11.664734 39,000 137 444 0
2020-09-19 05:47:44 GMT 48.207550 11.660790 39,000 137 444 -64
2020-09-19 05:47:41 GMT 48.212906 11.653255 39,000 136 443 0
2020-09-19 05:47:38 GMT 48.217831 11.646375 39,000 137 444 -64
2020-09-19 05:47:35 GMT 48.221043 11.641894 39,000 137 444 0
2020-09-19 05:47:32 GMT 48.226410 11.634451 39,000 137 444 0
2020-09-19 05:47:29 GMT 48.230850 11.628254 39,000 137 444 0
2020-09-19 05:47:26 GMT 48.236591 11.620210 39,000 137 444 0
2020-09-19 05:47:23 GMT 48.244133 11.609658 39,000 137 444 0
2020-09-19 05:47:20 GMT 48.244133 11.609658 39,000 137 444 0
2020-09-19 05:47:17 GMT 48.249111 11.602719 39,000 137 444 0
2020-09-19 05:47:14 GMT 48.253281 11.596914 39,000 137 444 -64
2020-09-19 05:47:11 GMT 48.263260 11.582970 39,000 137 444 -64
2020-09-19 05:47:08 GMT 48.263260 11.582970 39,025 137 445 -64
2020-09-19 05:47:05 GMT 48.265594 11.579731 39,000 137 445 -64
2020-09-19 05:47:02 GMT 48.272141 11.570646 39,025 137 445 -64
2020-09-19 05:46:59 GMT 48.275803 11.565505 39,025 137 445 -64
2020-09-19 05:46:56 GMT 48.279652 11.560147 39,025 137 445 -64
2020-09-19 05:46:53 GMT 48.284214 11.553859 39,025 136 445 0
2020-09-19 05:46:50 GMT 48.289146 11.546920 39,025 136 445 0
2020-09-19 05:46:47 GMT 48.294502 11.539475 39,025 136 445 0
2020-09-19 05:46:44 GMT 48.298321 11.534054 39,025 136 445 64
2020-09-19 05:46:41 GMT 48.303543 11.526771 39,000 136 445 64
2020-09-19 05:46:37 GMT 48.312332 11.514539 39,000 136 445 64
2020-09-19 05:46:34 GMT 48.312332 11.514539 39,000 137 446 64
2020-09-19 05:46:31 GMT 48.317593 11.507167 39,000 137 446 64
2020-09-19 05:46:28 GMT 48.321808 11.501277 39,000 137 446 0
2020-09-19 05:46:25 GMT 48.326202 11.495150 39,000 137 446 0
2020-09-19 05:46:21 GMT 48.332211 11.486784 39,000 136 447 -64
2020-09-19 05:46:18 GMT 48.337891 11.478834 39,000 136 447 -64
2020-09-19 05:46:14 GMT 48.347580 11.465290 39,000 136 447 0
2020-09-19 05:46:11 GMT 48.347580 11.465290 39,000 136 447 0
2020-09-19 05:46:08 GMT 48.352879 11.457873 39,000 136 447 0
2020-09-19 05:46:05 GMT 48.356781 11.452402 39,000 136 447 0
2020-09-19 05:46:02 GMT 48.361313 11.446064 39,000 136 447 0
2020-09-19 05:45:59 GMT 48.365662 11.439937 39,000 136 447 0
2020-09-19 05:45:56 GMT 48.371593 11.431564 39,000 136 447 0
2020-09-19 05:45:53 GMT 48.374523 11.427444 39,000 136 447 0
2020-09-19 05:45:50 GMT 48.380722 11.418739 39,000 136 447 0
2020-09-19 05:45:47 GMT 48.383881 11.414361 39,000 136 448 -64
2020-09-19 05:45:44 GMT 48.387726 11.408950 39,000 136 448 -64
2020-09-19 05:45:41 GMT 48.398544 11.393690 39,025 136 448 -64
2020-09-19 05:45:38 GMT 48.398544 11.393690 39,025 136 448 -64
2020-09-19 05:45:35 GMT 48.402924 11.387470 39,025 136 448 -64
2020-09-19 05:45:32 GMT 48.408234 11.380005 39,025 136 448 -64
2020-09-19 05:45:29 GMT 48.417435 11.367047 39,025 136 448 64
2020-09-19 05:45:26 GMT 48.417435 11.367047 39,025 136 448 64
2020-09-19 05:45:23 GMT 48.419727 11.363839 39,025 136 448 64
2020-09-19 05:45:20 GMT 48.424896 11.356538 39,000 136 450 64
2020-09-19 05:45:17 GMT 48.429153 11.350567 39,000 136 448 64
2020-09-19 05:45:14 GMT 48.435104 11.342116 39,000 136 448 64
2020-09-19 05:45:11 GMT 48.439270 11.336271 39,000 136 448 64
2020-09-19 05:45:08 GMT 48.443096 11.330880 39,000 136 449 0
2020-09-19 05:45:05 GMT 48.449203 11.322327 39,000 136 449 0
2020-09-19 05:45:02 GMT 48.452919 11.317002 39,000 136 449 0
2020-09-19 05:44:59 GMT 48.458366 11.309341 39,000 136 449 64
2020-09-19 05:44:56 GMT 48.461334 11.305072 39,000 136 449 64
2020-09-19 05:44:53 GMT 48.465683 11.299016 39,000 136 449 64
2020-09-19 05:44:50 GMT 48.470215 11.292607 39,000 136 449 64
2020-09-19 05:44:47 GMT 48.476196 11.284115 39,000 136 449 64
2020-09-19 05:44:44 GMT 48.479176 11.279923 39,000 136 449 64
2020-09-19 05:44:41 GMT 48.484222 11.272747 39,000 136 450 64
2020-09-19 05:44:38 GMT 48.488251 11.267043 38,975 136 450 0
2020-09-19 05:44:35 GMT 48.497238 11.254337 39,000 136 450 0
2020-09-19 05:44:29 GMT 48.502533 11.246831 39,000 136 450 64
2020-09-19 05:44:26 GMT 48.506287 11.241479 39,000 136 449 0
2020-09-19 05:44:23 GMT 48.510681 11.235281 39,000 136 450 0
2020-09-19 05:44:20 GMT 48.515717 11.228244 39,000 136 450 0
2020-09-19 05:44:17 GMT 48.520981 11.220799 39,000 136 450 0
2020-09-19 05:44:14 GMT 48.524704 11.215523 39,000 136 450 0
2020-09-19 05:44:11 GMT 48.528706 11.209813 39,000 136 450 0
2020-09-19 05:44:08 GMT 48.534897 11.201125 39,000 136 450 0
2020-09-19 05:44:05 GMT 48.537830 11.196948 39,000 136 450 64
2020-09-19 05:44:02 GMT 48.542999 11.189575 39,000 136 450 64
2020-09-19 05:43:58 GMT 48.549271 11.180702 39,000 136 450 0
2020-09-19 05:43:55 GMT 48.554634 11.173096 39,000 136 450 0
2020-09-19 05:43:52 GMT 48.558220 11.167964 39,000 136 451 0
2020-09-19 05:43:49 GMT 48.563507 11.160490 39,000 136 451 0
2020-09-19 05:43:45 GMT 48.568649 11.153147 39,000 136 451 0
2020-09-19 05:43:42 GMT 48.572464 11.147726 39,000 136 451 0
2020-09-19 05:43:39 GMT 48.577309 11.140787 39,000 136 451 0
2020-09-19 05:43:36 GMT 48.583191 11.132460 39,000 136 451 64
2020-09-19 05:43:33 GMT 48.586304 11.128024 39,000 136 451 64
2020-09-19 05:43:30 GMT 48.591110 11.121122 39,000 136 451 64
2020-09-19 05:43:27 GMT 48.595787 11.114478 39,000 136 451 64
2020-09-19 05:43:24 GMT 48.601700 11.106094 38,975 136 451 0
2020-09-19 05:43:21 GMT 48.606171 11.099642 38,975 136 451 0
2020-09-19 05:43:18 GMT 48.609241 11.095324 38,975 136 451 0
2020-09-19 05:43:15 GMT 48.615200 11.086795 38,975 136 451 0
2020-09-19 05:43:12 GMT 48.618347 11.082318 38,975 136 451 0
2020-09-19 05:43:09 GMT 48.623291 11.075346 38,975 136 451 0
2020-09-19 05:43:05 GMT 48.628654 11.067641 38,975 136 451 64
2020-09-19 05:43:02 GMT 48.633636 11.060558 38,975 136 452 0
2020-09-19 05:42:59 GMT 48.638893 11.053113 38,975 136 452 0
2020-09-19 05:42:55 GMT 48.643505 11.046536 38,975 136 452 0
2020-09-19 05:42:52 GMT 48.649612 11.037809 38,975 136 452 0
2020-09-19 05:42:49 GMT 48.653561 11.032225 38,975 136 452 0
2020-09-19 05:42:46 GMT 48.657936 11.025937 38,975 136 452 0
2020-09-19 05:42:43 GMT 48.662338 11.019780 38,975 136 452 0
2020-09-19 05:42:40 GMT 48.667759 11.012059 39,000 136 452 0
2020-09-19 05:42:36 GMT 48.674240 11.002808 38,975 136 452 0
2020-09-19 05:42:33 GMT 48.678909 10.996188 38,975 136 452 0
2020-09-19 05:42:30 GMT 48.682068 10.991680 38,975 136 452 0
2020-09-19 05:42:27 GMT 48.687168 10.984377 38,975 136 452 0
2020-09-19 05:42:24 GMT 48.691826 10.977727 39,000 136 452 0
2020-09-19 05:42:21 GMT 48.695782 10.972089 39,000 136 452 0
2020-09-19 05:42:18 GMT 48.702206 10.962838 38,975 136 452 0
2020-09-19 05:42:15 GMT 48.705746 10.957778 39,000 136 452 0
2020-09-19 05:42:12 GMT 48.708817 10.953441 39,000 136 452 0
2020-09-19 05:42:09 GMT 48.714752 10.944918 39,000 136 452 0
2020-09-19 05:42:06 GMT 48.718460 10.939566 39,000 136 454 0
2020-09-19 05:42:03 GMT 48.723202 10.932842 39,000 136 453 -64
2020-09-19 05:42:00 GMT 48.727890 10.926115 39,000 136 453 -64
2020-09-19 05:41:57 GMT 48.732372 10.919687 39,025 136 453 -64
2020-09-19 05:41:54 GMT 48.741497 10.906533 39,000 136 453 -64
2020-09-19 05:41:51 GMT 48.741497 10.906533 39,025 136 456 0
2020-09-19 05:41:48 GMT 48.746155 10.899846 39,025 136 453 -64
2020-09-19 05:41:45 GMT 48.755127 10.887029 39,025 136 453 -64
2020-09-19 05:41:42 GMT 48.755127 10.887029 39,025 136 453 -64
2020-09-19 05:41:39 GMT 48.759560 10.880657 39,025 136 453 -64
2020-09-19 05:41:36 GMT 48.764145 10.874070 39,025 136 455 64
2020-09-19 05:41:33 GMT 48.769730 10.866042 39,025 136 453 0
2020-09-19 05:41:29 GMT 48.774178 10.859624 39,025 136 453 0
2020-09-19 05:41:26 GMT 48.781067 10.849650 39,025 136 454 0
2020-09-19 05:41:23 GMT 48.783417 10.846252 39,025 136 454 0
2020-09-19 05:41:20 GMT 48.788086 10.839562 39,025 136 454 0
2020-09-19 05:41:17 GMT 48.792706 10.832953 39,025 136 454 0
2020-09-19 05:41:14 GMT 48.798477 10.824641 39,025 136 454 0
2020-09-19 05:41:11 GMT 48.801735 10.819943 39,025 136 454 0
2020-09-19 05:41:08 GMT 48.807220 10.812026 39,025 136 454 64
2020-09-19 05:41:04 GMT 48.813976 10.802307 39,025 136 454 64
2020-09-19 05:41:01 GMT 48.817337 10.797448 39,025 136 454 0
2020-09-19 05:40:58 GMT 48.822601 10.789842 39,025 136 454 64
2020-09-19 05:40:55 GMT 48.826035 10.784888 39,025 136 455 64
2020-09-19 05:40:52 GMT 48.830643 10.778238 39,025 136 455 64
2020-09-19 05:40:49 GMT 48.835190 10.771672 39,025 136 455 64
2020-09-19 05:40:46 GMT 48.840511 10.763927 39,025 136 455 64
2020-09-19 05:40:42 GMT 48.846004 10.756049 39,000 136 456 64
2020-09-19 05:40:39 GMT 48.851219 10.748532 39,025 136 455 64
2020-09-19 05:40:36 GMT 48.856388 10.741087 39,000 136 455 64
2020-09-19 05:40:33 GMT 48.859459 10.736606 39,000 136 455 64
2020-09-19 05:40:30 GMT 48.864853 10.728854 39,000 136 456 64
2020-09-19 05:40:27 GMT 48.869095 10.722729 39,000 136 456 0
2020-09-19 05:40:24 GMT 48.875427 10.713621 39,000 136 456 0
2020-09-19 05:40:21 GMT 48.883759 10.701599 39,000 136 456 0
2020-09-19 05:40:18 GMT 48.883759 10.701599 39,000 136 456 0
2020-09-19 05:40:15 GMT 48.887741 10.695895 39,000 136 456 0
2020-09-19 05:40:11 GMT 48.892868 10.688500 39,000 136 456 0
2020-09-19 05:40:08 GMT 48.898190 10.680879 39,000 136 456 0
2020-09-19 05:40:05 GMT 48.903168 10.673640 39,000 136 456 0
2020-09-19 05:40:02 GMT 48.907608 10.667232 39,000 136 456 0
2020-09-19 05:39:59 GMT 48.911972 10.660930 39,000 136 456 0
2020-09-19 05:39:56 GMT 48.916161 10.654787 39,000 136 456 0
2020-09-19 05:39:53 GMT 48.921562 10.646981 39,000 136 456 0
2020-09-19 05:39:50 GMT 48.924728 10.642372 39,000 136 456 0
2020-09-19 05:39:47 GMT 48.934479 10.628216 39,000 136 456 0
2020-09-19 05:39:44 GMT 48.934479 10.628216 39,000 136 456 0
2020-09-19 05:39:41 GMT 48.938366 10.622551 39,000 136 456 0
2020-09-19 05:39:38 GMT 48.944511 10.613660 39,000 136 456 0
2020-09-19 05:39:35 GMT 48.948795 10.607372 39,000 136 456 0
2020-09-19 05:39:32 GMT 48.952518 10.601951 39,025 136 456 0
2020-09-19 05:39:29 GMT 48.957870 10.594145 39,000 136 456 0
2020-09-19 05:39:26 GMT 48.961826 10.588435 39,025 136 456 0
2020-09-19 05:39:23 GMT 48.967319 10.580412 39,000 136 456 0
2020-09-19 05:39:20 GMT 48.976540 10.566968 39,025 136 456 0
2020-09-19 05:39:17 GMT 48.980530 10.561242 39,000 136 456 0
2020-09-19 05:39:14 GMT 48.980530 10.561242 39,000 136 456 0
2020-09-19 05:39:11 GMT 48.984375 10.555608 39,000 136 456 0
2020-09-19 05:39:08 GMT 48.989548 10.548072 39,000 136 456 0
2020-09-19 05:39:05 GMT 48.999580 10.533503 39,000 136 456 64
2020-09-19 05:39:02 GMT 48.999580 10.533503 39,000 136 456 64
2020-09-19 05:38:59 GMT 49.003922 10.527156 39,000 136 456 64
2020-09-19 05:38:56 GMT 49.011383 10.516310 39,000 136 456 64
2020-09-19 05:38:50 GMT 49.016647 10.508705 39,000 136 456 64
2020-09-19 05:38:47 GMT 49.021557 10.501556 39,000 136 456 0
2020-09-19 05:38:44 GMT 49.026863 10.493823 39,000 136 456 0
2020-09-19 05:38:41 GMT 49.030655 10.488281 39,000 136 456 0
2020-09-19 05:38:38 GMT 49.036171 10.480307 39,000 136 456 -64
2020-09-19 05:38:35 GMT 49.043713 10.469248 39,000 136 456 -64
2020-09-19 05:38:32 GMT 49.050182 10.459779 39,000 136 456 0
2020-09-19 05:38:29 GMT 49.050182 10.459779 39,000 136 456 0
2020-09-19 05:38:26 GMT 49.052673 10.456167 39,000 136 455 0
2020-09-19 05:38:23 GMT 49.057892 10.448491 39,000 136 455 64
2020-09-19 05:38:20 GMT 49.061600 10.443068 39,000 136 455 64
2020-09-19 05:38:17 GMT 49.066727 10.435533 39,000 136 455 64
2020-09-19 05:38:14 GMT 49.072296 10.427326 39,000 136 455 64
2020-09-19 05:38:11 GMT 49.077347 10.419969 39,000 136 455 0
2020-09-19 05:38:08 GMT 49.080490 10.415328 39,000 136 455 0
2020-09-19 05:38:05 GMT 49.090851 10.400038 39,000 136 455 0
2020-09-19 05:38:02 GMT 49.090851 10.400038 39,000 136 455 0
2020-09-19 05:37:59 GMT 49.095852 10.392705 39,000 136 455 0
2020-09-19 05:37:56 GMT 49.099640 10.387221 39,000 136 455 0
2020-09-19 05:37:53 GMT 49.104092 10.380707 39,000 136 454 0
2020-09-19 05:37:49 GMT 49.109444 10.372901 39,000 136 454 0
2020-09-19 05:37:46 GMT 49.114288 10.365745 39,000 136 454 0
2020-09-19 05:37:40 GMT 49.123226 10.352663 39,000 136 454 0
2020-09-19 05:37:36 GMT 49.129257 10.343839 39,000 136 454 0
2020-09-19 05:37:33 GMT 49.133980 10.336906 39,000 136 454 0
2020-09-19 05:37:30 GMT 49.139145 10.329389 39,000 136 454 0
2020-09-19 05:37:27 GMT 49.143585 10.322853 39,000 136 454 0
2020-09-19 05:37:24 GMT 49.147339 10.317359 39,000 136 454 0
2020-09-19 05:37:21 GMT 49.153381 10.308486 39,000 136 454 0
2020-09-19 05:37:18 GMT 49.157410 10.302640 39,000 136 454 0
2020-09-19 05:37:14 GMT 49.167126 10.288407 39,000 136 454 0
2020-09-19 05:37:11 GMT 49.167126 10.288407 39,000 136 454 0
2020-09-19 05:37:08 GMT 49.171268 10.282336 39,000 135 453 0
2020-09-19 05:37:05 GMT 49.175674 10.275808 39,000 136 454 0
2020-09-19 05:37:02 GMT 49.181122 10.267850 39,000 136 454 0
2020-09-19 05:36:59 GMT 49.184673 10.262604 39,000 136 454 0
2020-09-19 05:36:56 GMT 49.189281 10.255810 39,000 136 454 0
2020-09-19 05:36:53 GMT 49.199112 10.241300 39,000 135 453 0
2020-09-19 05:36:50 GMT 49.199112 10.241300 39,000 135 453 0
2020-09-19 05:36:47 GMT 49.203526 10.234849 39,000 136 454 64
2020-09-19 05:36:44 GMT 49.208038 10.228201 39,000 135 453 0
2020-09-19 05:36:41 GMT 49.216656 10.215478 39,000 135 453 0
2020-09-19 05:36:38 GMT 49.216656 10.215478 39,000 135 453 0
2020-09-19 05:36:34 GMT 49.222382 10.207094 39,000 135 453 0
2020-09-19 05:36:31 GMT 49.227875 10.198999 39,000 135 453 0
2020-09-19 05:36:28 GMT 49.230881 10.194467 39,000 135 452 0
2020-09-19 05:36:25 GMT 49.236954 10.185555 39,000 135 452 0
2020-09-19 05:36:22 GMT 49.240494 10.180242 39,000 135 451 0
2020-09-19 05:36:19 GMT 49.244843 10.173833 39,000 135 451 0
2020-09-19 05:36:16 GMT 49.249569 10.166907 39,000 135 451 0
2020-09-19 05:36:13 GMT 49.254547 10.159535 39,000 135 451 0
2020-09-19 05:36:10 GMT 49.259670 10.151945 39,000 135 451 0
2020-09-19 05:36:07 GMT 49.262054 10.148409 39,000 135 451 0
2020-09-19 05:36:04 GMT 49.268097 10.139536 39,000 135 451 0
2020-09-19 05:36:01 GMT 49.272537 10.132986 39,000 135 453 128
2020-09-19 05:35:58 GMT 49.276337 10.127443 39,000 136 451 0
2020-09-19 05:35:55 GMT 49.281418 10.119887 39,000 136 452 0
2020-09-19 05:35:52 GMT 49.286499 10.112422 39,000 136 451 -64
2020-09-19 05:35:49 GMT 49.291466 10.105109 39,000 135 454 64
2020-09-19 05:35:46 GMT 49.295326 10.099471 39,025 136 451 0
2020-09-19 05:35:43 GMT 49.299728 10.092985 39,025 136 452 0
2020-09-19 05:35:40 GMT 49.304455 10.086100 39,025 136 452 0
2020-09-19 05:35:37 GMT 49.308334 10.080449 39,025 136 451 0
2020-09-19 05:35:34 GMT 49.313576 10.072728 39,025 136 452 64
2020-09-19 05:35:31 GMT 49.323399 10.058345 39,025 136 453 64
2020-09-19 05:35:28 GMT 49.323399 10.058345 39,000 135 454 64
2020-09-19 05:35:25 GMT 49.326508 10.053758 39,000 135 454 64
2020-09-19 05:35:22 GMT 49.336807 10.038405 39,000 135 454 128
2020-09-19 05:35:19 GMT 49.336807 10.038405 39,000 135 454 128
2020-09-19 05:35:16 GMT 49.339787 10.033987 39,000 135 454 128
2020-09-19 05:35:13 GMT 49.344162 10.027265 38,975 135 455 128
2020-09-19 05:35:10 GMT 49.348755 10.020236 38,975 134 456 0
2020-09-19 05:35:07 GMT 49.354843 10.010869 38,975 134 456 64
2020-09-19 05:35:03 GMT 49.359192 10.004179 38,975 134 456 64
2020-09-19 05:35:00 GMT 49.364868 9.995446 38,975 134 456 64
2020-09-19 05:34:57 GMT 49.368462 9.989897 38,975 134 456 512
2020-09-19 05:34:54 GMT 49.373024 9.982886 38,975 134 456 448
2020-09-19 05:34:51 GMT 49.377274 9.976290 38,950 134 456 512
2020-09-19 05:34:48 GMT 49.382492 9.968332 38,925 134 456 704
2020-09-19 05:34:45 GMT 49.385742 9.963262 38,875 134 455 704
2020-09-19 05:34:42 GMT 49.390762 9.955565 38,700 134 455 704
2020-09-19 05:34:39 GMT 49.395786 9.947831 38,825 134 455 704
2020-09-19 05:34:36 GMT 49.400909 9.939953 38,775 134 455 704
2020-09-19 05:34:32 GMT 49.405518 9.932838 38,725 134 455 640
2020-09-19 05:34:29 GMT 49.409454 9.926781 38,700 134 455 640
2020-09-19 05:34:26 GMT 49.414490 9.918964 38,625 134 455 512
2020-09-19 05:34:23 GMT 49.417480 9.914366 38,650 134 455 576
2020-09-19 05:34:20 GMT 49.422741 9.906199 38,625 134 454 448
2020-09-19 05:34:17 GMT 49.427994 9.898176 38,600 134 454 448
2020-09-19 05:34:14 GMT 49.432159 9.891671 38,575 134 453 448
2020-09-19 05:34:10 GMT 49.438057 9.882573 38,550 134 453 448
2020-09-19 05:34:07 GMT 49.443283 9.874468 38,475 134 453 448
2020-09-19 05:34:04 GMT 49.448135 9.866951 37,675 134 451 512
2020-09-19 05:34:01 GMT 49.452713 9.859868 38,475 134 451 640
2020-09-19 05:33:58 GMT 49.456306 9.854291 38,450 134 451 640
2020-09-19 05:33:55 GMT 49.459854 9.848809 38,425 134 451 704
2020-09-19 05:33:52 GMT 49.465256 9.840497 38,350 134 450 704
2020-09-19 05:33:49 GMT 49.468002 9.836233 37,675 134 455 2240
2020-09-19 05:33:46 GMT 49.474411 9.826259 38,300 134 450 768
2020-09-19 05:33:43 GMT 49.478027 9.820693 38,275 134 450 704
2020-09-19 05:33:40 GMT 49.481400 9.815468 38,175 134 450 832
2020-09-19 05:33:37 GMT 49.487125 9.806634 38,200 134 450 1024
2020-09-19 05:33:34 GMT 49.490067 9.802045 38,150 134 450 1152
2020-09-19 05:33:30 GMT 49.497738 9.790155 38,075 134 451 1536
2020-09-19 05:33:27 GMT 49.500778 9.785421 37,675 134 455 2240
2020-09-19 05:33:24 GMT 49.504349 9.779911 37,900 134 452 1920
2020-09-19 05:33:21 GMT 49.509422 9.771968 37,725 134 455 2304
2020-09-19 05:33:18 GMT 49.513985 9.764916 37,675 134 455 2432
2020-09-19 05:33:15 GMT 49.522690 9.751405 37,300 134 458 2496
2020-09-19 05:33:12 GMT 49.522690 9.751405 37,400 134 458 2560
2020-09-19 05:33:09 GMT 49.528564 9.742271 37,275 134 461 2560
2020-09-19 05:33:06 GMT 49.531448 9.737717 37,100 134 463 2560
2020-09-19 05:33:03 GMT 49.536049 9.730621 36,900 134 466 2240
2020-09-19 05:33:00 GMT 49.540844 9.723123 36,925 134 468 1920
2020-09-19 05:32:57 GMT 49.545315 9.716145 36,350 134 467 2048
2020-09-19 05:32:54 GMT 49.549850 9.709095 36,575 134 470 1536
2020-09-19 05:32:51 GMT 49.556305 9.698976 36,650 134 470 1472
2020-09-19 05:32:48 GMT 49.559418 9.694173 36,575 134 470 1472
2020-09-19 05:32:45 GMT 49.563950 9.687050 36,525 134 470 1408
2020-09-19 05:32:42 GMT 49.568207 9.680401 36,425 134 471 1024
2020-09-19 05:32:39 GMT 49.572968 9.673017 36,050 134 471 1024
2020-09-19 05:32:36 GMT 49.578972 9.663589 36,275 134 471 1152
2020-09-19 05:32:33 GMT 49.582169 9.658573 36,225 134 471 1152
2020-09-19 05:32:30 GMT 49.586468 9.651860 36,175 134 471 1088
2020-09-19 05:32:27 GMT 49.591141 9.644551 36,100 134 471 1088
2020-09-19 05:32:24 GMT 49.602108 9.627438 35,950 134 470 1024
2020-09-19 05:32:21 GMT 49.602108 9.627438 36,050 134 471 1024
2020-09-19 05:32:18 GMT 49.605179 9.622687 36,000 134 471 1024
2020-09-19 05:32:15 GMT 49.609837 9.615413 35,900 134 471 1088
2020-09-19 05:32:12 GMT 49.614491 9.608138 35,900 134 471 1088
2020-09-19 05:32:09 GMT 49.619053 9.601012 35,825 134 470 1216
2020-09-19 05:32:06 GMT 49.623383 9.594256 35,800 134 470 1280
2020-09-19 05:32:03 GMT 49.627945 9.587056 35,675 134 471 1408
2020-09-19 05:32:00 GMT 49.632614 9.579789 35,000 134 474 0
2020-09-19 05:31:57 GMT 49.638428 9.570754 35,450 134 471 1536
2020-09-19 05:31:54 GMT 49.641449 9.565984 35,525 134 471 1536
2020-09-19 05:31:51 GMT 49.652252 9.549143 35,425 134 473 1408
2020-09-19 05:31:48 GMT 49.652252 9.549143 35,300 134 473 1408
2020-09-19 05:31:45 GMT 49.656109 9.543111 35,275 134 473 1344
2020-09-19 05:31:42 GMT 49.661369 9.534871 35,175 134 473 1152
2020-09-19 05:31:39 GMT 49.664490 9.530046 35,150 134 473 1152
2020-09-19 05:31:36 GMT 49.668911 9.523142 35,075 134 473 832
2020-09-19 05:31:33 GMT 49.673286 9.516239 35,075 134 473 832
2020-09-19 05:31:30 GMT 49.679306 9.506788 35,025 134 473 384
2020-09-19 05:31:27 GMT 49.683060 9.500933 35,000 134 473 192
2020-09-19 05:31:24 GMT 49.687088 9.494573 35,000 134 473 128
2020-09-19 05:31:21 GMT 49.691814 9.487214 35,000 134 473 0
2020-09-19 05:31:18 GMT 49.697075 9.478900 35,000 134 473 0
2020-09-19 05:31:15 GMT 49.701637 9.471774 35,000 134 473 0
2020-09-19 05:31:12 GMT 49.706291 9.464425 35,000 134 473 0
2020-09-19 05:31:09 GMT 49.710297 9.458189 35,000 134 473 0
2020-09-19 05:31:06 GMT 49.719223 9.444122 35,000 134 473 0
2020-09-19 05:31:03 GMT 49.719223 9.444122 35,000 134 473 0
2020-09-19 05:31:00 GMT 49.725376 9.434435 35,000 134 473 64
2020-09-19 05:30:57 GMT 49.728264 9.429907 35,000 134 473 64
2020-09-19 05:30:54 GMT 49.733105 9.422261 35,000 134 473 64
2020-09-19 05:30:51 GMT 49.739296 9.412537 35,000 134 473 0
2020-09-19 05:30:48 GMT 49.742184 9.407934 35,000 134 473 0
2020-09-19 05:30:45 GMT 49.748611 9.397792 35,000 134 473 0
2020-09-19 05:30:42 GMT 49.753281 9.390347 35,000 134 473 -64
2020-09-19 05:30:39 GMT 49.756290 9.385590 35,000 134 474 0
2020-09-19 05:30:36 GMT 49.760834 9.378421 35,000 134 473 0
2020-09-19 05:30:33 GMT 49.766994 9.368666 35,000 134 473 0
2020-09-19 05:30:30 GMT 49.771603 9.361317 35,000 134 473 0
2020-09-19 05:30:27 GMT 49.774536 9.356714 35,000 134 473 64
2020-09-19 05:30:24 GMT 49.780609 9.347125 35,000 134 474 0
2020-09-19 05:30:21 GMT 49.783382 9.342759 35,000 134 473 0
2020-09-19 05:30:18 GMT 49.788025 9.335415 35,000 134 473 0
2020-09-19 05:30:15 GMT 49.793106 9.327393 35,000 134 473 0
2020-09-19 05:30:12 GMT 49.797638 9.320237 35,000 134 473 0
2020-09-19 05:30:09 GMT 49.802261 9.312865 35,000 134 474 0
2020-09-19 05:30:06 GMT 49.811546 9.298219 35,000 134 473 64
2020-09-19 05:30:03 GMT 49.811546 9.298219 35,000 134 473 64
2020-09-19 05:30:00 GMT 49.817551 9.288651 35,000 134 473 64
2020-09-19 05:29:57 GMT 49.821075 9.283086 35,000 134 473 64
2020-09-19 05:29:54 GMT 49.829514 9.269640 35,000 134 473 0
2020-09-19 05:29:51 GMT 49.829514 9.269640 35,000 134 473 0
2020-09-19 05:29:48 GMT 49.834637 9.261549 35,000 134 473 0
2020-09-19 05:29:45 GMT 49.840210 9.252729 35,000 134 473 -64
2020-09-19 05:29:39 GMT 49.847717 9.240838 35,000 134 473 0
2020-09-19 05:29:36 GMT 49.852421 9.233341 35,000 134 473 0
2020-09-19 05:29:33 GMT 49.857632 9.225101 35,000 134 473 0
2020-09-19 05:29:30 GMT 49.861404 9.219119 35,000 134 473 0
2020-09-19 05:29:27 GMT 49.866486 9.211024 35,000 134 473 0
2020-09-19 05:29:24 GMT 49.871693 9.202757 35,000 134 473 0
2020-09-19 05:29:21 GMT 49.876720 9.194740 35,000 134 472 0
2020-09-19 05:29:18 GMT 49.880722 9.188401 35,000 134 472 0
2020-09-19 05:29:15 GMT 49.883881 9.183342 35,000 134 472 0
2020-09-19 05:29:12 GMT 49.889465 9.174451 35,000 134 472 0
2020-09-19 05:29:09 GMT 49.899170 9.158984 35,025 134 472 0
2020-09-19 05:29:06 GMT 49.899170 9.158984 35,000 134 472 0
2020-09-19 05:29:03 GMT 49.902924 9.152985 35,000 134 472 0
2020-09-19 05:29:00 GMT 49.907501 9.145684 35,000 134 473 64
2020-09-19 05:28:57 GMT 49.911987 9.138529 35,000 134 473 64
2020-09-19 05:28:54 GMT 49.917206 9.130217 35,000 134 472 64
2020-09-19 05:28:51 GMT 49.921734 9.123106 35,000 134 472 64
2020-09-19 05:28:48 GMT 49.925694 9.116797 35,000 134 473 64
2020-09-19 05:28:45 GMT 49.929749 9.110340 35,000 134 473 64
2020-09-19 05:28:42 GMT 49.934956 9.102099 35,000 134 473 0
2020-09-19 05:28:39 GMT 49.940186 9.093789 35,000 134 473 64
2020-09-19 05:28:36 GMT 49.943573 9.088368 35,000 133 473 128
2020-09-19 05:28:33 GMT 49.948967 9.079681 34,975 133 474 320
2020-09-19 05:28:30 GMT 49.954193 9.071021 34,975 132 473 384
2020-09-19 05:28:27 GMT 49.961380 9.058517 34,950 131 473 768
2020-09-19 05:28:24 GMT 49.961380 9.058517 34,925 130 473 960
2020-09-19 05:28:21 GMT 49.965775 9.050582 34,875 129 473 1024
2020-09-19 05:28:18 GMT 49.969872 9.042936 34,800 127 475 1024
2020-09-19 05:28:15 GMT 49.974518 9.034014 34,700 127 476 1024
2020-09-19 05:28:12 GMT 49.978436 9.026159 34,700 127 476 1024
2020-09-19 05:28:09 GMT 49.982529 9.017752 34,450 125 476 1024
2020-09-19 05:28:06 GMT 49.986073 9.010125 34,575 124 476 1024
2020-09-19 05:28:03 GMT 49.990959 8.999287 34,550 122 477 1280
2020-09-19 05:28:00 GMT 49.998367 8.981829 34,475 122 476 1216
2020-09-19 05:27:57 GMT 49.998367 8.981829 34,450 122 477 1344
2020-09-19 05:27:54 GMT 50.000687 8.976053 34,200 121 476 1536
2020-09-19 05:27:51 GMT 50.003448 8.969036 34,250 120 477 1536
2020-09-19 05:27:48 GMT 50.011597 8.946991 34,200 119 478 1472
2020-09-19 05:27:45 GMT 50.011597 8.946991 34,150 118 478 1472
2020-09-19 05:27:42 GMT 50.014709 8.938173 34,100 118 478 1472
2020-09-19 05:27:39 GMT 50.018280 8.927909 34,000 118 478 1472
2020-09-19 05:27:36 GMT 50.021118 8.919959 33,900 119 478 1472
2020-09-19 05:27:33 GMT 50.024384 8.911100 33,850 120 479 1472
2020-09-19 05:27:30 GMT 50.026524 8.905384 33,800 120 479 1472
2020-09-19 05:27:27 GMT 50.034485 8.884896 33,600 122 479 1472
2020-09-19 05:27:24 GMT 50.034485 8.884896 33,000 132 478 64
2020-09-19 05:27:20 GMT 50.037964 8.876375 33,575 122 479 1472
2020-09-19 05:27:17 GMT 50.042496 8.865605 33,475 124 479 1472
2020-09-19 05:27:14 GMT 50.046204 8.857077 33,400 124 479 1472
2020-09-19 05:27:11 GMT 50.050598 8.847102 33,300 125 479 1472
2020-09-19 05:27:08 GMT 50.053989 8.839763 33,225 126 479 1472
2020-09-19 05:27:05 GMT 50.057968 8.831201 33,175 126 479 1344
2020-09-19 05:27:02 GMT 50.061218 8.824479 33,150 127 479 960
2020-09-19 05:26:59 GMT 50.065720 8.815192 33,100 127 479 960
2020-09-19 05:26:56 GMT 50.069912 8.806878 33,050 128 478 512
2020-09-19 05:26:53 GMT 50.072845 8.801237 33,025 129 478 192
2020-09-19 05:26:50 GMT 50.077641 8.792180 33,000 130 478 -64
2020-09-19 05:26:47 GMT 50.082573 8.783198 33,000 131 478 0
2020-09-19 05:26:44 GMT 50.086903 8.775404 33,000 131 478 0
2020-09-19 05:26:41 GMT 50.090580 8.768946 33,000 132 478 64
2020-09-19 05:26:38 GMT 50.096119 8.759592 33,000 133 478 128
2020-09-19 05:26:35 GMT 50.105011 8.745043 33,000 134 478 192
2020-09-19 05:26:32 GMT 50.105011 8.745043 33,000 134 478 192
2020-09-19 05:26:29 GMT 50.108410 8.739624 33,000 134 478 192
2020-09-19 05:26:26 GMT 50.113205 8.732275 32,825 135 479 256
2020-09-19 05:26:23 GMT 50.118805 8.723867 32,950 136 479 192
2020-09-19 05:26:20 GMT 50.123447 8.717058 32,950 137 479 448
2020-09-19 05:26:17 GMT 50.129219 8.708818 32,925 138 479 640
2020-09-19 05:26:14 GMT 50.132629 8.704063 32,925 138 478 768
2020-09-19 05:26:11 GMT 50.138306 8.696329 32,875 139 478 1216
2020-09-19 05:26:08 GMT 50.143326 8.689740 32,600 139 478 1216
2020-09-19 05:26:05 GMT 50.149246 8.682018 32,750 140 478 1216
2020-09-19 05:26:02 GMT 50.154263 8.675488 32,625 140 478 1216
2020-09-19 05:25:56 GMT 50.164673 8.662141 32,600 140 477 1152
2020-09-19 05:25:53 GMT 50.170670 8.654480 32,525 140 476 1024
2020-09-19 05:25:50 GMT 50.175064 8.648842 32,425 140 476 896
2020-09-19 05:25:47 GMT 50.184242 8.637110 32,425 140 475 896
2020-09-19 05:25:44 GMT 50.184242 8.637110 32,375 140 470 0
2020-09-19 05:25:41 GMT 50.190079 8.629616 32,225 140 473 1088
2020-09-19 05:25:38 GMT 50.195160 8.623111 32,275 140 473 1088
2020-09-19 05:25:35 GMT 50.199512 8.617512 32,225 140 473 1088
2020-09-19 05:25:32 GMT 50.203354 8.612631 32,200 140 473 1088
2020-09-19 05:25:29 GMT 50.209290 8.604967 31,775 140 467 1280
2020-09-19 05:25:26 GMT 50.215340 8.597247 32,125 140 471 1024
2020-09-19 05:25:23 GMT 50.221893 8.588779 31,975 140 470 960
2020-09-19 05:25:19 GMT 50.227119 8.582030 31,975 140 469 896
2020-09-19 05:25:15 GMT 50.233521 8.573817 31,850 140 469 896
2020-09-19 05:25:12 GMT 50.236755 8.569633 31,900 140 468 960
2020-09-19 05:25:09 GMT 50.242947 8.561616 31,800 140 467 1088
2020-09-19 05:25:06 GMT 50.254723 8.546472 31,750 140 467 1280
2020-09-19 05:25:03 GMT 50.254723 8.546472 31,700 140 467 1280
2020-09-19 05:25:00 GMT 50.258148 8.542087 31,575 140 466 1280
2020-09-19 05:24:57 GMT 50.263245 8.535412 31,625 140 466 1280
2020-09-19 05:24:54 GMT 50.269775 8.526981 31,375 140 463 1280
2020-09-19 05:24:51 GMT 50.272934 8.522933 31,425 140 465 1344
2020-09-19 05:24:48 GMT 50.276325 8.518561 31,125 140 464 1280
2020-09-19 05:24:45 GMT 50.287964 8.503492 31,300 140 465 1280
2020-09-19 05:24:42 GMT 50.287964 8.503492 31,225 140 465 1280
2020-09-19 05:24:39 GMT 50.293625 8.496190 31,200 140 464 1280
2020-09-19 05:24:36 GMT 50.297791 8.490769 31,100 140 464 1280
2020-09-19 05:24:33 GMT 50.302765 8.484415 30,975 140 462 1344
2020-09-19 05:24:30 GMT 50.308090 8.477542 30,800 140 463 1280
2020-09-19 05:24:27 GMT 50.312851 8.471326 30,875 140 463 1344
2020-09-19 05:24:24 GMT 50.323013 8.458244 30,825 140 462 1408
2020-09-19 05:24:21 GMT 50.323013 8.458244 30,800 140 462 1664
2020-09-19 05:24:18 GMT 50.326355 8.453907 30,775 140 462 1472
2020-09-19 05:24:15 GMT 50.332977 8.445294 30,650 140 428 1536
2020-09-19 05:24:12 GMT 50.336151 8.441186 30,575 140 462 1792
2020-09-19 05:24:09 GMT 50.341919 8.433742 30,400 140 462 1856
2020-09-19 05:24:06 GMT 50.347782 8.426068 30,425 140 462 1728
2020-09-19 05:24:03 GMT 50.352669 8.419759 30,325 140 463 1472
2020-09-19 05:23:59 GMT 50.358948 8.411624 30,225 140 462 1344
2020-09-19 05:23:56 GMT 50.363934 8.405135 30,150 140 462 1344
2020-09-19 05:23:53 GMT 50.369019 8.398470 30,100 140 462 1344
2020-09-19 05:23:50 GMT 50.374084 8.391922 29,875 140 461 1344
2020-09-19 05:23:47 GMT 50.379730 8.384592 29,975 140 461 1280
2020-09-19 05:23:44 GMT 50.383022 8.380341 29,925 140 461 1280
2020-09-19 05:23:41 GMT 50.387257 8.374774 29,850 140 460 1216
2020-09-19 05:23:38 GMT 50.394848 8.364975 29,800 140 460 1152
2020-09-19 05:23:35 GMT 50.398544 8.360162 29,725 140 459 1152
2020-09-19 05:23:31 GMT 50.406624 8.349609 29,625 140 457 1216
2020-09-19 05:23:28 GMT 50.408344 8.347382 29,625 140 457 1216
2020-09-19 05:23:25 GMT 50.413048 8.341221 29,575 140 457 1216
2020-09-19 05:23:22 GMT 50.418503 8.334142 29,400 140 455 1280
2020-09-19 05:23:19 GMT 50.424454 8.326375 29,400 140 455 1216
2020-09-19 05:23:16 GMT 50.427570 8.322292 29,175 140 455 1280
2020-09-19 05:23:13 GMT 50.434135 8.313681 29,300 140 453 1152
2020-09-19 05:23:10 GMT 50.438782 8.307616 29,225 140 453 1152
2020-09-19 05:23:07 GMT 50.445053 8.299448 29,175 140 452 1152
2020-09-19 05:23:04 GMT 50.449631 8.293449 29,100 140 451 1152
2020-09-19 05:23:01 GMT 50.452709 8.289481 29,075 140 450 1152
2020-09-19 05:22:58 GMT 50.458946 8.281316 29,000 140 449 1152
2020-09-19 05:22:55 GMT 50.463913 8.274801 29,000 140 449 1152
2020-09-19 05:22:52 GMT 50.468956 8.268251 28,875 140 448 1024
2020-09-19 05:22:49 GMT 50.472107 8.264104 28,875 140 448 960
2020-09-19 05:22:46 GMT 50.476776 8.257960 28,750 140 445 896
2020-09-19 05:22:43 GMT 50.483109 8.249693 28,650 140 440 1216
2020-09-19 05:22:37 GMT 50.490967 8.239385 28,650 140 443 1024
2020-09-19 05:22:34 GMT 50.495636 8.233313 28,625 140 441 1088
2020-09-19 05:22:31 GMT 50.501862 8.225146 28,550 140 440 1216
2020-09-19 05:22:28 GMT 50.506348 8.219291 28,425 140 439 1408
2020-09-19 05:22:25 GMT 50.511131 8.213023 28,425 140 438 1536
2020-09-19 05:22:22 GMT 50.514626 8.208494 27,825 140 428 1536
2020-09-19 05:22:19 GMT 50.519093 8.202630 28,275 140 438 1536
2020-09-19 05:22:16 GMT 50.528683 8.190085 28,200 140 437 1472
2020-09-19 05:22:13 GMT 50.528683 8.190085 28,125 140 437 1408
2020-09-19 05:22:10 GMT 50.533310 8.183947 28,050 140 436 1344
2020-09-19 05:22:07 GMT 50.538925 8.176649 28,000 140 435 1216
2020-09-19 05:22:04 GMT 50.542507 8.171972 27,925 140 434 1152
2020-09-19 05:22:01 GMT 50.547226 8.165733 27,825 140 433 1216
2020-09-19 05:21:58 GMT 50.551895 8.159589 27,825 140 433 1216
2020-09-19 05:21:55 GMT 50.555637 8.154676 27,775 140 431 1280
2020-09-19 05:21:52 GMT 50.562248 8.145991 27,725 140 431 1344
2020-09-19 05:21:49 GMT 50.566910 8.139930 24,700 137 415 1024
2020-09-19 05:21:46 GMT 50.575005 8.129289 26,200 140 428 1536
2020-09-19 05:21:43 GMT 50.575005 8.129289 27,500 140 428 1536
2020-09-19 05:21:40 GMT 50.579330 8.123573 27,450 140 428 1600
2020-09-19 05:21:37 GMT 50.583988 8.117486 27,350 139 427 1728
2020-09-19 05:21:34 GMT 50.588596 8.111473 27,200 139 427 1728
2020-09-19 05:21:31 GMT 50.593204 8.105386 27,175 139 427 1792
2020-09-19 05:21:28 GMT 50.596161 8.101405 27,100 137 426 1920
2020-09-19 05:21:25 GMT 50.601837 8.093744 26,900 138 427 1856
2020-09-19 05:21:22 GMT 50.606277 8.087528 26,925 137 415 1088
2020-09-19 05:21:19 GMT 50.612045 8.079360 26,800 137 426 1920
2020-09-19 05:21:16 GMT 50.614883 8.075240 26,775 137 426 1856
2020-09-19 05:21:12 GMT 50.620789 8.066639 26,525 137 425 1728
2020-09-19 05:21:09 GMT 50.625092 8.060402 25,950 137 421 1536
2020-09-19 05:21:06 GMT 50.629349 8.054280 26,475 137 425 1728
2020-09-19 05:21:03 GMT 50.633846 8.047782 26,350 137 416 1088
2020-09-19 05:21:00 GMT 50.637943 8.041844 26,250 137 423 1600
2020-09-19 05:20:57 GMT 50.643341 8.033975 26,200 137 423 1536
2020-09-19 05:20:54 GMT 50.647522 8.027898 26,025 137 421 1472
2020-09-19 05:20:51 GMT 50.651825 8.021610 25,925 137 421 1472
2020-09-19 05:20:47 GMT 50.656036 8.015538 26,000 137 421 1536
2020-09-19 05:20:44 GMT 50.660610 8.008959 25,850 137 419 1600
2020-09-19 05:20:41 GMT 50.664894 8.002649 25,425 137 418 1536
2020-09-19 05:20:38 GMT 50.669132 7.996488 25,725 137 418 1536
2020-09-19 05:20:35 GMT 50.673157 7.990624 25,675 137 417 1472
2020-09-19 05:20:32 GMT 50.679153 7.981939 25,575 137 416 1024
2020-09-19 05:20:29 GMT 50.681259 7.978821 25,500 137 416 1024
2020-09-19 05:20:26 GMT 50.686031 7.971878 25,450 137 416 1024
2020-09-19 05:20:23 GMT 50.690231 7.965756 25,400 137 416 1024
2020-09-19 05:20:20 GMT 50.694504 7.959595 25,125 137 416 1024
2020-09-19 05:20:17 GMT 50.698647 7.953568 25,350 137 416 1024
2020-09-19 05:20:14 GMT 50.704605 7.944897 25,175 137 415 1088
2020-09-19 05:20:11 GMT 50.707352 7.940903 25,200 137 415 1088
2020-09-19 05:20:08 GMT 50.711540 7.934799 25,175 137 415 1088
2020-09-19 05:20:05 GMT 50.717453 7.926178 25,075 137 415 1088
2020-09-19 05:20:02 GMT 50.720306 7.922033 25,050 137 415 1024
2020-09-19 05:19:59 GMT 50.724575 7.915878 25,000 137 415 1024
2020-09-19 05:19:56 GMT 50.728592 7.909934 24,925 137 415 1024
2020-09-19 05:19:53 GMT 50.732906 7.903671 24,900 137 415 1024
2020-09-19 05:19:50 GMT 50.738022 7.896201 24,775 137 415 1024
2020-09-19 05:19:47 GMT 50.742828 7.889223 24,800 137 415 1024
2020-09-19 05:19:44 GMT 50.746780 7.883453 23,925 137 416 1024
2020-09-19 05:19:41 GMT 50.751019 7.877274 24,700 137 416 1024
2020-09-19 05:19:38 GMT 50.753860 7.873040 24,650 137 416 1024
2020-09-19 05:19:35 GMT 50.758484 7.866285 24,350 137 416 1024
2020-09-19 05:19:32 GMT 50.763931 7.858342 24,425 137 416 1024
2020-09-19 05:19:29 GMT 50.766815 7.854111 24,500 137 416 1024
2020-09-19 05:19:26 GMT 50.771118 7.847801 24,400 137 416 1024
2020-09-19 05:19:23 GMT 50.775375 7.841492 24,350 137 416 1088
2020-09-19 05:19:20 GMT 50.779495 7.835479 24,325 137 416 1024
2020-09-19 05:19:17 GMT 50.783508 7.829590 24,300 137 416 1024
2020-09-19 05:19:14 GMT 50.787746 7.823410 24,275 137 416 1024
2020-09-19 05:19:11 GMT 50.793331 7.815247 24,175 137 416 1024
2020-09-19 05:19:08 GMT 50.797382 7.809296 24,125 137 416 1024
2020-09-19 05:19:05 GMT 50.801853 7.802734 23,950 137 416 960
2020-09-19 05:19:02 GMT 50.806046 7.796581 24,025 137 416 960
2020-09-19 05:18:59 GMT 50.809532 7.791443 24,000 137 416 960
2020-09-19 05:18:56 GMT 50.814514 7.784110 23,950 137 414 1024
2020-09-19 05:18:53 GMT 50.818542 7.778246 23,800 137 414 1024
2020-09-19 05:18:50 GMT 50.821243 7.774312 23,875 137 414 1024
2020-09-19 05:18:47 GMT 50.825867 7.767482 23,775 137 413 1024
2020-09-19 05:18:44 GMT 50.829456 7.762222 23,750 137 412 1024
2020-09-19 05:18:41 GMT 50.834671 7.754593 23,725 137 412 1024
2020-09-19 05:18:38 GMT 50.837723 7.750112 23,675 136 380 2368
2020-09-19 05:18:34 GMT 50.848892 7.733633 23,575 137 405 1024
2020-09-19 05:18:28 GMT 50.851730 7.729476 23,425 137 404 1024
2020-09-19 05:18:25 GMT 50.856445 7.722572 23,425 137 404 1024
2020-09-19 05:18:22 GMT 50.861252 7.715520 23,400 137 404 1024
2020-09-19 05:18:18 GMT 50.866013 7.708468 23,325 137 403 1024
2020-09-19 05:18:15 GMT 50.870682 7.701639 23,275 137 401 1024
2020-09-19 05:18:12 GMT 50.873428 7.697556 23,200 137 400 1024
2020-09-19 05:18:09 GMT 50.881805 7.685233 23,100 137 399 1344
2020-09-19 05:18:06 GMT 50.881805 7.685233 23,125 137 399 1216
2020-09-19 05:18:03 GMT 50.887043 7.677536 23,050 136 395 1856
2020-09-19 05:18:00 GMT 50.890961 7.671723 22,925 136 395 1792
2020-09-19 05:17:57 GMT 50.894676 7.666245 22,875 136 395 1920
2020-09-19 05:17:54 GMT 50.897984 7.661362 22,825 136 394 2112
2020-09-19 05:17:51 GMT 50.903366 7.653462 22,675 136 394 2176
2020-09-19 05:17:48 GMT 50.905849 7.649765 22,450 136 394 2176
2020-09-19 05:17:45 GMT 50.914043 7.637711 22,300 136 393 2432
2020-09-19 05:17:42 GMT 50.914043 7.637711 22,300 136 393 2432
2020-09-19 05:17:39 GMT 50.917953 7.631912 22,225 136 393 2560
2020-09-19 05:17:36 GMT 50.921814 7.626145 22,150 136 394 2560
2020-09-19 05:17:33 GMT 50.926987 7.618573 21,975 136 394 2560
2020-09-19 05:17:30 GMT 50.929638 7.614594 21,800 136 394 2496
2020-09-19 05:17:27 GMT 50.934723 7.607141 21,725 136 394 2496
2020-09-19 05:17:24 GMT 50.941929 7.596436 21,575 137 393 2368
2020-09-19 05:17:18 GMT 50.945976 7.590485 21,425 136 392 2240
2020-09-19 05:17:15 GMT 50.949982 7.584534 21,325 136 391 1984
2020-09-19 05:17:12 GMT 50.959030 7.571139 21,025 136 391 1984
2020-09-19 05:17:08 GMT 50.959030 7.571139 21,100 136 391 1984
2020-09-19 05:17:05 GMT 50.962967 7.565275 21,025 136 390 1984
2020-09-19 05:17:02 GMT 50.966812 7.559633 20,850 136 389 1920
2020-09-19 05:16:59 GMT 50.976051 7.545929 20,750 136 387 1792
2020-09-19 05:16:56 GMT 50.976051 7.545929 20,475 136 380 2368
2020-09-19 05:16:53 GMT 50.978611 7.542114 20,500 136 385 2048
2020-09-19 05:16:50 GMT 50.983871 7.534332 20,425 136 384 2368
2020-09-19 05:16:46 GMT 50.988853 7.526932 20,275 136 383 2432
2020-09-19 05:16:43 GMT 50.996254 7.515945 20,150 137 382 2368
2020-09-19 05:16:40 GMT 50.996254 7.515945 20,150 137 382 2368
2020-09-19 05:16:36 GMT 51.001328 7.508469 19,875 137 381 2432
2020-09-19 05:16:33 GMT 51.005051 7.502975 19,775 136 380 2432
2020-09-19 05:16:30 GMT 51.009243 7.496796 19,700 136 380 2368
2020-09-19 05:16:27 GMT 51.013153 7.490997 19,575 136 379 2304
2020-09-19 05:16:24 GMT 51.016846 7.485475 19,475 136 378 2368
2020-09-19 05:16:21 GMT 51.020233 7.480502 19,150 136 377 2368
2020-09-19 05:16:18 GMT 51.023346 7.475815 19,275 136 377 2368
2020-09-19 05:16:15 GMT 51.028515 7.468185 19,125 136 376 2432
2020-09-19 05:16:11 GMT 51.032318 7.462538 19,050 136 375 2496
2020-09-19 05:16:08 GMT 51.037220 7.455292 17,225 136 368 2816
2020-09-19 05:16:04 GMT 51.045971 7.442245 18,625 136 374 2624
2020-09-19 05:15:58 GMT 51.048813 7.438049 18,375 136 372 2752
2020-09-19 05:15:55 GMT 51.053143 7.431564 18,325 136 372 2752
2020-09-19 05:15:52 GMT 51.056168 7.427063 18,200 136 372 2624
2020-09-19 05:15:49 GMT 51.060169 7.421112 18,075 136 372 2624
2020-09-19 05:15:46 GMT 51.065292 7.413483 17,625 136 370 2816
2020-09-19 05:15:43 GMT 51.067795 7.409759 17,850 136 371 2688
2020-09-19 05:15:40 GMT 51.071854 7.403717 17,600 136 370 2752
2020-09-19 05:15:37 GMT 51.075718 7.397919 17,400 136 369 2816
2020-09-19 05:15:34 GMT 51.080235 7.391281 17,400 136 369 2816
2020-09-19 05:15:31 GMT 51.081985 7.388677 17,325 136 369 2816
2020-09-19 05:15:28 GMT 51.087402 7.380524 17,125 136 368 2816
2020-09-19 05:15:24 GMT 51.091686 7.374191 16,825 136 367 2752
2020-09-19 05:15:18 GMT 51.098297 7.364273 16,700 136 367 2752
2020-09-19 05:15:15 GMT 51.103046 7.357178 16,475 136 365 2752
2020-09-19 05:15:12 GMT 51.106258 7.352371 16,425 136 364 2688
2020-09-19 05:15:07 GMT 51.113659 7.341309 15,675 135 359 2240
2020-09-19 05:15:04 GMT 51.117737 7.335156 16,000 136 361 2432
2020-09-19 05:15:01 GMT 51.119568 7.332409 15,875 136 361 2496
2020-09-19 05:14:58 GMT 51.123901 7.325897 15,800 136 360 2496
2020-09-19 05:14:54 GMT 51.128494 7.319047 15,675 136 360 2432
2020-09-19 05:14:51 GMT 51.131516 7.314519 15,575 136 358 2496
2020-09-19 05:14:48 GMT 51.135307 7.308884 15,475 136 358 2560
2020-09-19 05:14:44 GMT 51.140472 7.301102 15,275 136 355 2624
2020-09-19 05:14:41 GMT 51.144287 7.295441 15,050 136 354 2816
2020-09-19 05:14:38 GMT 51.147175 7.291107 14,925 136 354 2816
2020-09-19 05:14:34 GMT 51.151787 7.284164 14,825 136 354 2944
2020-09-19 05:14:31 GMT 51.159805 7.272207 14,575 136 353 3008
2020-09-19 05:14:28 GMT 51.159805 7.272207 14,150 136 350 2880
2020-09-19 05:14:24 GMT 51.164494 7.265091 14,250 136 352 3072
2020-09-19 05:14:21 GMT 51.168228 7.259513 14,200 136 352 3136
2020-09-19 05:14:18 GMT 51.171246 7.255020 13,900 136 351 3264
2020-09-19 05:14:14 GMT 51.176514 7.247042 13,800 136 350 3264
2020-09-19 05:14:11 GMT 51.180695 7.240829 13,625 136 350 3136
2020-09-19 05:14:08 GMT 51.184387 7.235239 13,475 136 350 3008
2020-09-19 05:14:04 GMT 51.188423 7.229233 13,300 136 350 2880
2020-09-19 05:13:58 GMT 51.195267 7.218857 13,025 136 348 2624
2020-09-19 05:13:54 GMT 51.199966 7.211838 12,875 136 346 2432
2020-09-19 05:13:51 GMT 51.203037 7.207260 12,800 136 345 2368
2020-09-19 05:13:48 GMT 51.212349 7.193222 12,350 136 340 2560
2020-09-19 05:13:43 GMT 51.212349 7.193222 12,400 136 340 2624
2020-09-19 05:13:40 GMT 51.216476 7.187063 12,400 136 339 2816
2020-09-19 05:13:37 GMT 51.218811 7.183500 12,225 136 338 3136
2020-09-19 05:13:33 GMT 51.224304 7.175186 11,975 136 336 3136
2020-09-19 05:13:30 GMT 51.226547 7.171845 10,625 136 298 1792
2020-09-19 05:13:27 GMT 51.230164 7.166426 11,725 136 336 2944
2020-09-19 05:13:24 GMT 51.237854 7.154846 11,500 136 333 2496
2020-09-19 05:13:21 GMT 51.237854 7.154846 11,425 136 331 2176
2020-09-19 05:13:17 GMT 51.241211 7.149811 11,325 136 331 2112
2020-09-19 05:13:14 GMT 51.245682 7.143043 11,200 136 327 1728
2020-09-19 05:13:11 GMT 51.248154 7.139406 11,050 136 323 1472
2020-09-19 05:13:08 GMT 51.252319 7.133096 11,050 136 321 1408
2020-09-19 05:13:04 GMT 51.256107 7.127380 10,975 136 315 1472
2020-09-19 05:13:01 GMT 51.258865 7.123298 10,850 136 313 1472
2020-09-19 05:12:58 GMT 51.263031 7.117062 10,825 136 308 1536
2020-09-19 05:12:55 GMT 51.265980 7.112579 10,725 136 304 1664
2020-09-19 05:12:51 GMT 51.269005 7.108002 10,650 136 299 1728
2020-09-19 05:12:48 GMT 51.272598 7.102587 10,575 136 296 2048
2020-09-19 05:12:45 GMT 51.275803 7.097688 10,425 136 290 2560
2020-09-19 05:12:42 GMT 51.280827 7.090073 10,225 136 287 3392
2020-09-19 05:12:39 GMT 51.280827 7.090073 10,050 136 286 3456
2020-09-19 05:12:36 GMT 51.283539 7.085885 10,050 136 286 3456
2020-09-19 05:12:33 GMT 51.287476 7.079872 9,950 136 286 3456
2020-09-19 05:12:30 GMT 51.290268 7.075641 9,675 136 285 3456
2020-09-19 05:12:27 GMT 51.293564 7.070593 8,850 136 283 3136
2020-09-19 05:12:22 GMT 51.297588 7.064514 9,250 136 283 3008
2020-09-19 05:12:19 GMT 51.301266 7.058868 9,100 136 282 2880
2020-09-19 05:12:16 GMT 51.302708 7.056656 9,075 136 280 2816
2020-09-19 05:12:13 GMT 51.306656 7.050625 8,800 136 272 2752
2020-09-19 05:12:09 GMT 51.308990 7.047136 8,725 136 275 2688
2020-09-19 05:12:06 GMT 51.312202 7.042313 8,575 137 271 2816
2020-09-19 05:12:02 GMT 51.315857 7.036892 8,200 137 266 3264
2020-09-19 05:11:59 GMT 51.319096 7.032089 7,475 138 264 3520
2020-09-19 05:11:56 GMT 51.321396 7.028726 8,100 137 265 3392
2020-09-19 05:11:52 GMT 51.325378 7.023087 7,750 138 264 3648
2020-09-19 05:11:49 GMT 51.327564 7.019958 7,675 137 264 3392
2020-09-19 05:11:46 GMT 51.330780 7.015290 7,525 137 265 2944
2020-09-19 05:11:42 GMT 51.334084 7.010345 7,325 133 266 3136
2020-09-19 05:11:39 GMT 51.336643 7.006073 7,175 131 266 3200
2020-09-19 05:11:36 GMT 51.339249 7.000815 6,950 122 266 3904
2020-09-19 05:11:33 GMT 51.341400 6.995470 6,700 116 267 4096
2020-09-19 05:11:30 GMT 51.343300 6.989441 6,575 113 268 4160
2020-09-19 05:11:27 GMT 51.344372 6.985474 6,125 107 269 5056
2020-09-19 05:11:23 GMT 51.346207 6.977358 6,050 107 269 5120
2020-09-19 05:11:20 GMT 51.346931 6.973572 5,900 105 271 5184
2020-09-19 05:11:17 GMT 51.348190 6.965942 5,575 102 274 4416
2020-09-19 05:11:11 GMT 51.349686 6.955385 5,000 102 275 4032
2020-09-19 05:11:08 GMT 51.350655 6.948318 4,925 101 274 3264
2020-09-19 05:11:05 GMT 51.351288 6.943953 4,800 100 273 2816
2020-09-19 05:11:01 GMT 51.352333 6.933899 4,650 92 268 2240
2020-09-19 05:10:58 GMT 51.352566 6.927872 4,575 88 266 2176
2020-09-19 05:10:55 GMT 51.352470 6.923828 4,425 75 256 2240
2020-09-19 05:10:52 GMT 51.351913 6.917114 4,325 75 256 2240
2020-09-19 05:10:48 GMT 51.350704 6.909180 4,175 70 251 2240
2020-09-19 05:10:44 GMT 51.349491 6.903992 3,800 65 247 2112
2020-09-19 05:10:41 GMT 51.345795 6.893104 3,925 55 238 2112
2020-09-19 05:10:38 GMT 51.345795 6.893104 3,800 55 238 2112
2020-09-19 05:10:34 GMT 51.343872 6.888725 3,750 53 232 2112
2020-09-19 05:10:30 GMT 51.340942 6.882266 3,525 53 226 2048
2020-09-19 05:10:27 GMT 51.339157 6.878332 3,475 53 223 2048
2020-09-19 05:10:24 GMT 51.337624 6.875076 3,425 52 219 2048
2020-09-19 05:10:20 GMT 51.334595 6.868744 3,275 52 215 1920
2020-09-19 05:10:17 GMT 51.332966 6.865311 3,200 52 206 1344
2020-09-19 05:10:14 GMT 51.331478 6.862259 3,125 52 206 1280
2020-09-19 05:10:11 GMT 51.329800 6.858749 2,975 52 195 1984
2020-09-19 05:10:08 GMT 51.327850 6.854801 2,900 52 195 1984
2020-09-19 05:10:05 GMT 51.326122 6.851196 2,875 52 193 1984
2020-09-19 05:10:02 GMT 51.323936 6.846619 2,725 52 188 2048
2020-09-19 05:09:58 GMT 51.321899 6.842330 2,600 53 185 1984
2020-09-19 05:09:55 GMT 51.320629 6.839600 2,475 53 183 1984
2020-09-19 05:09:50 GMT 51.318398 6.834793 2,375 53 177 1920
2020-09-19 05:09:47 GMT 51.317184 6.832160 2,250 53 176 1920
2020-09-19 05:09:44 GMT 51.315720 6.829042 2,175 54 172 1920
2020-09-19 05:09:41 GMT 51.314114 6.825409 2,000 54 170 1856
2020-09-19 05:09:38 GMT 51.312763 6.822433 2,000 54 170 1856
2020-09-19 05:09:34 GMT 51.310867 6.818279 1,875 54 165 1984
2020-09-19 05:09:31 GMT 51.309540 6.815383 1,725 53 163 1920
2020-09-19 05:09:28 GMT 51.308434 6.812973 1,550 53 161 1792
2020-09-19 05:09:24 GMT 51.306572 6.808853 1,575 53 161 1792
2020-09-19 05:09:18 GMT 51.303818 6.802838 1,375 53 153 1664
2020-09-19 05:09:15 GMT 51.302567 6.800156 1,275 52 152 1792

Making use of Plane Finder data

You are free to use the raw flight data, aircraft information and images provided in this report for your own purposes provided the data is correctly attributed to Plane Finder. We ask that you please credit Plane Finder and link to planefinder.net in close proximity to the content.

Optionally one of the following logos (no smaller then 150x24px) can be used and must link to planefinder.net

Embedding the Plane Finder map

You are welcome to embed the Plane Finder playback map on your website to offer visitors a more interactive experience. We suggest using the following HTML code:

<iframe src="//planefinder.net/data/report/EW9680-D-AGWG-7700-squawk-2020-09-19/map" width="800" height="600" seamless="seamless"></iframe>

Where our data comes from

Plane Finder has a global network of data feeds and antenna radars that receive data broadcast directly from aircraft. The primary technologies used are ADS-B and MLAT. We also show feeds from the FAA and a FLARM glider feed.

Click here to find out more about the Plane Finder network.

How we collect our data